Latitude: N 50° 09' 49" Longitude: W 05° 11' 53" Elevation: 168m ASL

There are 29 visitors online

Adverts

<- Previous Day | Today | Next Day ->

All Data for 04 January 2018

Time
A - D
Temp
A - D
Dew Point
A - D
Humidity
A - D
Pressure
A - D
Wind
A - D
Wind Dir Gust
A - D
Rain Rate
A - D
Rain Total
06:46 12.3 12.2 99 997.3 38.7 S 38.7 0.0 9.6
03:39 12.4 12.3 99 998.5 38.0 WSW 38.0 1.5 4.4
05:15 12.4 12.3 99 997.7 36.5 SW 36.5 0.8 9.3
05:52 12.5 12.4 99 997.7 36.5 S 36.5 0.0 9.6
11:54 9.5 9.0 97 999.5 36.5 SW 36.5 0.0 9.6
05:53 12.5 12.4 99 997.6 35.8 N 36.5 0.0 9.6
05:42 12.5 12.4 99 997.5 34.9 WSW 34.9 0.0 9.5
05:35 12.4 12.3 99 997.4 34.2 S 34.2 0.8 9.5
05:36 12.4 12.3 99 997.6 34.2 W 34.2 0.8 9.5
09:37 10.8 10.7 99 997.8 34.2 WNW 34.2 0.0 9.6
12:59 10.0 8.4 90 999.8 34.2 SW 34.2 0.0 9.6
13:00 10.0 8.4 90 999.8 34.2 SW 34.2 0.0 9.6
13:01 10.0 8.4 90 999.9 34.2 SW 34.2 0.0 9.6
03:18 12.5 12.4 99 998.9 33.6 S 33.6 2.3 3.7
03:40 12.4 12.3 99 998.5 33.6 S 38.0 1.5 4.5
04:30 12.3 12.2 99 997.9 33.6 WSW 33.6 3.0 6.9
06:35 12.3 12.2 99 997.3 33.6 S 34.9 0.0 9.6
12:26 10.3 9.1 92 999.7 33.6 WSW 33.6 0.0 9.6
01:57 12.5 12.4 99 999.4 32.7 WSW 32.7 1.5 2.0
03:02 12.6 12.5 99 999.0 32.7 WSW 32.7 1.5 3.3
04:49 12.4 12.3 99 997.7 32.7 WSW 34.9 3.0 8.3
04:52 12.4 12.3 99 997.8 32.7 SE 34.9 3.8 8.6
05:02 12.4 12.3 99 997.6 32.7 S 32.7 2.3 9.0
05:39 12.5 12.4 99 997.7 32.7 S 34.2 0.8 9.5
06:14 12.3 12.2 99 997.2 32.7 WSW 32.7 0.0 9.6
09:24 11.0 10.9 99 997.6 32.7 SW 32.7 0.0 9.6
01:27 12.2 12.1 99 999.4 32.0 NW 32.0 0.8 1.4
04:46 12.3 12.2 99 998.0 32.0 WSW 32.0 4.5 8.1
05:54 12.5 12.4 99 997.4 32.0 WSW 36.5 0.0 9.6
06:06 12.4 12.3 99 997.3 32.0 WSW 32.7 0.0 9.6
08:44 11.4 11.3 99 997.5 32.0 N 32.0 0.0 9.6
08:51 11.4 11.3 99 997.5 32.0 N 32.0 0.0 9.6
09:21 11.0 10.9 99 997.8 32.0 W 32.0 0.0 9.6
11:06 9.9 9.8 99 999.2 32.0 SW 32.0 0.0 9.6
11:55 9.4 8.8 96 999.5 32.0 SW 36.5 0.0 9.6
12:13 9.8 9.0 95 999.3 32.0 SW 32.0 0.0 9.6
12:16 10.0 9.1 94 999.7 32.0 SW 32.0 0.0 9.6
18:41 9.3 9.2 99 996.0 32.0 S 32.0 10.6 13.7
04:39 12.3 12.2 99 998.0 31.1 WSW 33.6 6.8 7.7
05:16 12.4 12.3 99 997.5 31.1 WSW 36.5 0.8 9.3
05:23 12.4 12.3 99 997.8 31.1 S 36.5 0.0 9.3
06:01 12.4 12.3 99 997.5 31.1 WSW 36.5 0.0 9.6
08:36 11.5 11.4 99 997.5 31.1 WSW 31.1 0.0 9.6
08:43 11.4 11.3 99 997.7 31.1 WSW 31.1 0.0 9.6
10:01 10.8 10.7 99 998.3 31.1 W 31.1 0.0 9.6
12:25 10.3 9.1 92 999.7 31.1 SW 32.0 0.0 9.6
12:45 10.3 8.4 88 999.4 31.1 SW 31.1 0.0 9.6
01:14 11.8 11.7 99 999.9 30.4 WSW 30.4 0.8 1.3
01:36 12.3 12.2 99 999.6 30.4 S 32.0 1.5 1.6
01:45 12.5 12.4 99 999.4 30.4 S 30.4 0.8 1.8
01:48 12.5 12.4 99 999.4 30.4 NW 30.4 0.8 1.8
01:53 12.5 12.4 99 999.5 30.4 WSW 30.4 1.5 2.0
02:35 12.6 12.5 99 999.4 30.4 S 30.4 0.8 2.8
02:45 12.6 12.5 99 999.3 30.4 WSW 30.4 0.8 3.0
02:49 12.6 12.5 99 999.2 30.4 S 30.4 0.8 3.0
05:04 12.4 12.3 99 997.7 30.4 S 32.7 2.3 9.1
05:38 12.5 12.4 99 997.5 30.4 S 34.2 0.8 9.5
05:43 12.5 12.4 99 997.7 30.4 WSW 34.9 0.0 9.5
05:49 12.5 12.4 99 997.7 30.4 WSW 34.9 0.8 9.6
06:51 12.2 12.1 99 997.2 30.4 S 38.7 0.0 9.6
07:51 11.8 11.7 99 997.0 30.4 WSW 30.4 0.0 9.6
08:52 11.3 11.2 99 997.6 30.4 NW 32.0 0.0 9.6
10:07 10.7 10.6 99 998.6 30.4 SW 31.1 0.0 9.6
10:09 10.7 10.6 99 998.4 30.4 SW 31.1 0.0 9.6
10:26 10.6 10.5 99 998.7 30.4 SW 30.4 0.0 9.6
11:02 9.9 9.8 99 999.2 30.4 SW 30.4 0.0 9.6
12:03 9.4 8.8 96 999.1 30.4 WNW 36.5 0.0 9.6
02:40 12.6 12.5 99 999.3 29.8 WSW 30.4 1.5 2.9
02:57 12.5 12.4 99 999.1 29.8 WSW 30.4 0.8 3.2
02:58 12.5 12.4 99 999.1 29.8 WSW 30.4 1.5 3.2
03:32 12.4 12.3 99 998.7 29.8 WSW 29.8 2.3 4.2
03:49 12.4 12.3 99 998.4 29.8 S 38.0 2.3 4.9
04:45 12.3 12.2 99 997.7 29.8 WNW 31.1 4.5 8.1
04:47 12.3 12.2 99 998.0 29.8 WSW 34.9 3.8 8.3
06:08 12.3 12.2 99 997.5 29.8 WSW 32.7 0.0 9.6
06:21 12.3 12.2 99 997.2 29.8 WSW 32.7 0.0 9.6
06:52 12.3 12.2 99 997.4 29.8 WSW 38.7 0.0 9.6
06:58 12.3 12.2 99 997.1 29.8 NW 32.0 0.0 9.6
07:08 12.2 12.1 99 997.4 29.8 WSW 30.4 0.0 9.6
07:23 12.1 12.0 99 997.1 29.8 WSW 32.7 0.0 9.6
08:07 11.7 11.6 99 997.1 29.8 WSW 30.4 0.0 9.6
08:10 11.7 11.6 99 997.1 29.8 WSW 30.4 0.0 9.6
08:19 11.6 11.5 99 997.2 29.8 N 30.4 0.0 9.6
08:55 11.3 11.2 99 997.5 29.8 SW 32.0 0.0 9.6
09:04 11.2 11.1 99 997.3 29.8 SW 36.5 0.0 9.6
09:05 11.2 11.1 99 997.5 29.8 SW 36.5 0.0 9.6
09:16 11.1 11.0 99 997.7 29.8 SW 29.8 0.0 9.6
09:36 10.9 10.8 99 997.7 29.8 N 29.8 0.0 9.6
10:35 10.3 10.2 99 998.9 29.8 S 31.1 0.0 9.6
10:53 10.0 9.9 99 999.2 29.8 SW 29.8 0.0 9.6
11:40 9.7 9.4 98 999.2 29.8 SW 29.8 0.0 9.6
12:32 10.4 8.8 90 999.6 29.8 SW 33.6 0.0 9.6
18:39 9.3 9.2 99 995.6 29.8 S 29.8 9.8 13.6
19:14 8.3 8.2 99 995.7 29.8 N 29.8 0.0 13.9
01:29 12.3 12.2 99 999.7 28.9 S 32.0 1.5 1.4
01:37 12.4 12.3 99 999.9 28.9 WSW 32.0 0.8 1.6
01:38 12.4 12.3 99 999.3 28.9 WSW 30.4 1.5 1.6
03:36 12.4 12.3 99 998.5 28.9 WSW 29.8 1.5 4.3
03:38 12.4 12.3 99 998.6 28.9 S 29.8 2.3 4.4
03:44 12.4 12.3 99 998.5 28.9 WSW 38.0 2.3 4.7
03:53 12.4 12.3 99 998.2 28.9 WSW 29.8 2.3 5.0
04:21 12.3 12.2 99 997.8 28.9 N 28.9 3.8 6.4
04:59 12.4 12.3 99 997.6 28.9 S 32.7 2.3 8.9
05:01 12.4 12.3 99 997.7 28.9 S 32.7 0.8 8.9
05:03 12.4 12.3 99 997.7 28.9 WSW 32.7 1.5 9.1
05:10 12.4 12.3 99 997.7 28.9 WSW 32.7 1.5 9.2
05:11 12.4 12.3 99 997.5 28.9 WSW 32.7 0.8 9.2
05:13 12.4 12.3 99 997.8 28.9 WSW 30.4 0.0 9.3
05:18 12.4 12.3 99 997.7 28.9 WSW 36.5 1.5 9.3
05:19 12.4 12.3 99 997.7 28.9 NW 36.5 0.8 9.3
07:03 12.2 12.1 99 997.4 28.9 S 29.8 0.0 9.6
07:04 12.2 12.1 99 997.3 28.9 WSW 30.4 0.0 9.6
07:48 11.8 11.7 99 997.1 28.9 WSW 28.9 0.0 9.6
08:22 11.6 11.5 99 997.3 28.9 WSW 30.4 0.0 9.6
09:13 11.1 11.0 99 997.5 28.9 SW 29.8 0.0 9.6
09:15 11.1 11.0 99 997.9 28.9 S 28.9 0.0 9.6
09:17 11.1 11.0 99 997.8 28.9 SW 29.8 0.0 9.6
09:27 11.0 10.9 99 997.8 28.9 SW 32.7 0.0 9.6
10:46 10.1 10.0 99 999.2 28.9 SW 28.9 0.0 9.6
11:16 9.9 9.8 99 999.2 28.9 SW 32.0 0.0 9.6
11:17 9.9 9.8 99 999.3 28.9 SW 30.4 0.0 9.6
11:20 9.9 9.8 99 999.1 28.9 SW 30.4 0.0 9.6
11:22 9.8 9.7 99 999.2 28.9 NW 30.4 0.0 9.6
11:50 9.6 9.1 97 999.3 28.9 SW 33.6 0.0 9.6
19:39 8.9 8.8 99 995.6 28.9 S 28.9 1.5 14.0
01:58 12.5 12.4 99 999.5 28.2 NW 32.7 2.3 2.1
02:21 12.6 12.5 99 999.6 28.2 WSW 30.4 0.8 2.6
02:25 12.6 12.5 99 999.4 28.2 WSW 28.2 0.8 2.6
02:28 12.6 12.5 99 999.3 28.2 WSW 28.2 0.8 2.7
02:29 12.6 12.5 99 999.3 28.2 WSW 28.2 0.8 2.7
02:39 12.6 12.5 99 999.1 28.2 NW 30.4 1.5 2.9
02:46 12.6 12.5 99 999.3 28.2 WSW 30.4 1.5 3.0
03:26 12.5 12.4 99 998.7 28.2 WSW 33.6 3.8 4.0
03:31 12.4 12.3 99 998.8 28.2 WSW 28.2 1.5 4.2
03:43 12.4 12.3 99 998.6 28.2 S 38.0 1.5 4.6
03:54 12.4 12.3 99 998.3 28.2 NW 29.8 3.0 5.0
04:07 12.4 12.3 99 997.9 28.2 S 28.2 2.3 5.4
04:12 12.3 12.2 99 998.1 28.2 S 28.9 3.8 5.7
04:28 12.3 12.2 99 997.7 28.2 NNE 28.9 3.0 6.8
04:50 12.4 12.3 99 997.9 28.2 WSW 34.9 3.8 8.4
05:06 12.4 12.3 99 997.7 28.2 WSW 32.7 3.0 9.1
05:24 12.4 12.3 99 997.9 28.2 WSW 36.5 0.0 9.3
05:33 12.4 12.3 99 997.3 28.2 WSW 31.1 0.8 9.4
05:44 12.5 12.4 99 997.7 28.2 NW 34.9 0.0 9.5
06:23 12.3 12.2 99 997.1 28.2 SW 32.7 0.0 9.6
06:30 12.3 12.2 99 997.2 28.2 NW 31.1 0.0 9.6
06:32 12.3 12.2 99 997.2 28.2 WSW 34.9 0.0 9.6
06:56 12.3 12.2 99 997.3 28.2 WSW 32.0 0.0 9.6
07:02 12.2 12.1 99 997.1 28.2 WSW 29.8 0.0 9.6
07:30 12.0 11.9 99 996.8 28.2 WSW 29.8 0.0 9.6
07:56 11.8 11.7 99 997.0 28.2 WSW 30.4 0.0 9.6
07:57 11.8 11.7 99 997.2 28.2 S 30.4 0.0 9.6
08:35 11.5 11.4 99 997.4 28.2 NW 28.2 0.0 9.6
08:42 11.5 11.4 99 997.1 28.2 W 31.1 0.0 9.6
08:46 11.4 11.3 99 997.2 28.2 W 32.0 0.0 9.6
08:56 11.3 11.2 99 997.6 28.2 SW 32.0 0.0 9.6
09:25 11.0 10.9 99 997.7 28.2 W 32.7 0.0 9.6
09:38 10.8 10.7 99 997.9 28.2 W 34.2 0.0 9.6
09:43 10.8 10.7 99 998.1 28.2 S 34.2 0.0 9.6
09:45 10.8 10.7 99 997.8 28.2 SW 34.2 0.0 9.6
10:02 10.8 10.7 99 998.4 28.2 SW 31.1 0.0 9.6
10:41 10.2 10.1 99 998.8 28.2 NW 29.8 0.0 9.6
10:45 10.1 10.0 99 999.0 28.2 SW 29.8 0.0 9.6
11:05 9.9 9.8 99 999.2 28.2 SW 30.4 0.0 9.6
12:28 10.3 8.9 91 999.7 28.2 SW 33.6 0.0 9.6
12:43 10.4 8.5 88 999.9 28.2 SW 28.9 0.0 9.6
12:51 10.1 8.4 89 999.8 28.2 SW 31.1 0.0 9.6
19:59 8.9 8.8 99 995.8 28.2 WSW 28.2 0.0 14.0
20:00 8.9 8.8 99 995.7 28.2 WSW 28.2 0.8 14.0
20:02 8.9 8.8 99 995.7 28.2 WSW 28.2 0.8 14.0
20:03 8.9 8.8 99 995.9 28.2 WSW 28.2 0.8 14.0
20:05 8.9 8.8 99 996.1 28.2 WSW 28.2 0.0 14.0
20:07 8.9 8.8 99 995.8 28.2 WSW 28.2 0.0 14.0
01:11 11.5 11.4 99 999.9 27.3 NW 27.3 0.0 1.2
01:52 12.5 12.4 99 999.4 27.3 NW 30.4 1.5 1.9
02:30 12.6 12.5 99 999.3 27.3 S 28.2 0.8 2.7
02:32 12.6 12.5 99 999.5 27.3 S 28.2 1.5 2.8
02:34 12.6 12.5 99 999.5 27.3 S 28.2 0.8 2.8
02:55 12.5 12.4 99 999.2 27.3 WSW 30.4 1.5 3.1
03:24 12.5 12.4 99 998.5 27.3 S 33.6 3.0 4.0
03:51 12.4 12.3 99 998.4 27.3 WSW 29.8 2.3 4.9
03:55 12.4 12.3 99 998.3 27.3 WSW 29.8 1.5 5.0
04:09 12.4 12.3 99 998.1 27.3 WSW 28.2 3.0 5.4
04:14 12.3 12.2 99 998.1 27.3 WSW 28.9 6.0 6.0
04:24 12.3 12.2 99 997.9 27.3 S 28.9 4.5 6.6
04:48 12.3 12.2 99 997.8 27.3 WSW 34.9 3.8 8.3
04:51 12.4 12.3 99 997.7 27.3 NW 34.9 3.8 8.5
05:17 12.4 12.3 99 997.8 27.3 WSW 36.5 1.5 9.3
05:55 12.5 12.4 99 997.6 27.3 WSW 36.5 0.0 9.6
05:56 12.4 12.3 99 997.6 27.3 WSW 36.5 0.0 9.6
06:07 12.3 12.2 99 997.3 27.3 NW 32.7 0.0 9.6
06:12 12.3 12.2 99 997.5 27.3 WSW 32.7 0.0 9.6
06:45 12.3 12.2 99 997.2 27.3 W 28.2 0.0 9.6
06:55 12.2 12.1 99 997.4 27.3 S 38.7 0.0 9.6
07:13 12.2 12.1 99 997.2 27.3 WSW 30.4 0.0 9.6
07:24 12.0 11.9 99 997.2 27.3 WSW 32.7 0.0 9.6
07:54 11.8 11.7 99 997.1 27.3 WSW 30.4 0.0 9.6
07:55 11.8 11.7 99 997.1 27.3 WSW 30.4 0.0 9.6
08:03 11.7 11.6 99 997.2 27.3 WSW 29.8 0.0 9.6
08:18 11.6 11.5 99 997.0 27.3 S 30.4 0.0 9.6
08:26 11.6 11.5 99 997.5 27.3 WSW 29.8 0.0 9.6
08:29 11.6 11.5 99 997.2 27.3 WSW 29.8 0.0 9.6
08:34 11.5 11.4 99 997.6 27.3 WNW 27.3 0.0 9.6
08:58 11.3 11.2 99 997.5 27.3 S 32.0 0.0 9.6
09:03 11.2 11.1 99 997.3 27.3 SW 36.5 0.0 9.6
09:33 10.9 10.8 99 997.8 27.3 NW 32.7 0.0 9.6
10:08 10.8 10.7 99 998.4 27.3 W 31.1 0.0 9.6
10:17 10.7 10.6 99 998.6 27.3 SW 31.1 0.0 9.6
11:12 9.9 9.8 99 999.3 27.3 SW 32.0 0.0 9.6
11:28 9.8 9.7 99 999.4 27.3 SW 28.9 0.0 9.6
11:52 9.5 9.0 97 999.4 27.3 SW 33.6 0.0 9.6
12:46 10.3 8.6 89 999.9 27.3 SW 31.1 0.0 9.6
01:56 12.5 12.4 99 999.6 26.6 W 30.4 1.5 2.0
02:16 12.6 12.5 99 999.3 26.6 WSW 30.4 0.8 2.5
02:17 12.6 12.5 99 999.3 26.6 WSW 30.4 0.8 2.5
02:20 12.6 12.5 99 999.5 26.6 WSW 30.4 0.8 2.6
02:42 12.6 12.5 99 999.0 26.6 SE 30.4 0.8 3.0
04:25 12.3 12.2 99 997.8 26.6 WSW 28.9 4.5 6.7
04:32 12.3 12.2 99 998.0 26.6 S 33.6 2.3 7.0
04:34 12.3 12.2 99 997.9 26.6 WSW 33.6 3.0 7.2
05:14 12.4 12.3 99 997.7 26.6 S 30.4 0.8 9.3
05:32 12.4 12.3 99 997.7 26.6 WSW 31.1 0.8 9.4
05:34 12.4 12.3 99 997.4 26.6 WSW 29.8 0.8 9.4
05:59 12.4 12.3 99 997.5 26.6 WSW 36.5 0.0 9.6
06:00 12.4 12.3 99 997.3 26.6 WSW 36.5 0.0 9.6
06:02 12.4 12.3 99 997.5 26.6 WSW 35.8 0.0 9.6
06:10 12.3 12.2 99 997.5 26.6 WSW 32.7 0.0 9.6
06:11 12.3 12.2 99 997.4 26.6 WSW 32.7 0.0 9.6
06:26 12.3 12.2 99 997.0 26.6 WSW 31.1 0.0 9.6
06:34 12.3 12.2 99 997.2 26.6 N 34.9 0.0 9.6
06:49 12.2 12.1 99 997.2 26.6 WSW 38.7 0.0 9.6
06:53 12.3 12.2 99 997.3 26.6 WSW 38.7 0.0 9.6
07:29 12.0 11.9 99 997.1 26.6 WSW 32.7 0.0 9.6
07:42 11.9 11.8 99 997.2 26.6 NNW 29.8 0.0 9.6
08:14 11.6 11.5 99 997.2 26.6 WSW 30.4 0.0 9.6
09:30 10.9 10.8 99 997.6 26.6 S 32.7 0.0 9.6
09:44 10.8 10.7 99 997.9 26.6 S 34.2 0.0 9.6
10:12 10.7 10.6 99 998.4 26.6 W 31.1 0.0 9.6
10:24 10.6 10.5 99 998.8 26.6 W 27.3 0.0 9.6
10:36 10.3 10.2 99 999.0 26.6 NNW 31.1 0.0 9.6
10:39 10.2 10.1 99 998.9 26.6 SW 29.8 0.0 9.6
10:44 10.1 10.0 99 999.1 26.6 SW 29.8 0.0 9.6
10:50 10.0 9.9 99 999.0 26.6 SW 28.9 0.0 9.6
11:03 9.9 9.8 99 999.2 26.6 SW 30.4 0.0 9.6
11:09 9.9 9.8 99 999.2 26.6 SW 32.0 0.0 9.6
11:19 9.9 9.8 99 998.8 26.6 SW 30.4 0.0 9.6
11:26 9.8 9.7 99 999.3 26.6 SW 28.9 0.0 9.6
11:39 9.7 9.4 98 999.4 26.6 SW 27.3 0.0 9.6
12:24 10.2 9.1 93 999.6 26.6 SW 32.0 0.0 9.6
12:27 10.3 8.9 91 999.5 26.6 SW 33.6 0.0 9.6
12:35 10.4 8.7 89 999.6 26.6 SW 33.6 0.0 9.6
12:36 10.5 8.8 89 999.7 26.6 SW 33.6 0.0 9.6
01:32 12.3 12.2 99 999.6 25.9 WSW 32.0 1.5 1.5
02:04 12.6 12.5 99 999.7 25.9 WSW 32.7 0.0 2.3
02:10 12.6 12.5 99 999.4 25.9 WSW 32.7 2.3 2.5
02:12 12.6 12.5 99 999.5 25.9 WSW 32.7 1.5 2.5
02:19 12.5 12.4 99 999.3 25.9 WSW 30.4 0.8 2.6
02:38 12.6 12.5 99 999.2 25.9 NW 30.4 0.8 2.9
02:53 12.5 12.4 99 999.2 25.9 WSW 30.4 0.8 3.1
03:10 12.5 12.4 99 998.6 25.9 WSW 32.7 0.8 3.4
04:10 12.4 12.3 99 998.1 25.9 WSW 28.2 2.3 5.5
04:20 12.3 12.2 99 997.9 25.9 S 28.9 3.0 6.3
04:22 12.3 12.2 99 998.0 25.9 S 28.9 4.5 6.5
04:35 12.3 12.2 99 997.7 25.9 WNW 33.6 3.8 7.2
04:55 12.4 12.3 99 997.7 25.9 S 34.9 4.5 8.8
05:22 12.4 12.3 99 998.1 25.9 S 36.5 0.0 9.3
05:31 12.5 12.4 99 997.6 25.9 WNW 31.1 0.8 9.4
05:45 12.5 12.4 99 997.5 25.9 WSW 34.9 0.0 9.5
05:48 12.5 12.4 99 997.5 25.9 WSW 34.9 0.8 9.6
06:13 12.3 12.2 99 997.3 25.9 WSW 32.7 0.0 9.6
06:27 12.3 12.2 99 997.3 25.9 WSW 31.1 0.0 9.6
07:11 12.2 12.1 99 997.5 25.9 S 30.4 0.0 9.6
07:15 12.1 12.0 99 997.3 25.9 WSW 29.8 0.0 9.6
07:28 12.0 11.9 99 997.2 25.9 WSW 32.7 0.0 9.6
07:33 12.0 11.9 99 997.2 25.9 WSW 29.8 0.0 9.6
08:02 11.7 11.6 99 997.0 25.9 S 30.4 0.0 9.6
08:37 11.5 11.4 99 997.5 25.9 S 31.1 0.0 9.6
08:40 11.5 11.4 99 997.5 25.9 WSW 31.1 0.0 9.6
09:02 11.2 11.1 99 997.1 25.9 W 36.5 0.0 9.6
09:11 11.1 11.0 99 997.6 25.9 W 29.8 0.0 9.6
09:22 11.0 10.9 99 997.7 25.9 SW 32.0 0.0 9.6
09:23 11.0 10.9 99 997.7 25.9 SW 32.0 0.0 9.6
09:46 10.8 10.7 99 998.0 25.9 SW 34.2 0.0 9.6
09:51 10.8 10.7 99 998.1 25.9 SW 28.2 0.0 9.6
09:53 10.7 10.6 99 998.2 25.9 W 28.2 0.0 9.6
10:47 10.1 10.0 99 999.0 25.9 SW 28.9 0.0 9.6
11:11 9.9 9.8 99 999.1 25.9 SW 32.0 0.0 9.6
11:15 9.9 9.8 99 999.2 25.9 SW 32.0 0.0 9.6
11:23 9.8 9.7 99 999.2 25.9 NW 30.4 0.0 9.6
11:27 9.8 9.7 99 999.4 25.9 W 28.9 0.0 9.6
11:44 9.7 9.4 98 999.2 25.9 SW 29.8 0.0 9.6
11:47 9.6 9.3 98 999.5 25.9 SW 32.0 0.0 9.6
11:53 9.5 9.0 97 999.4 25.9 SW 33.6 0.0 9.6
12:22 10.2 9.1 93 999.6 25.9 SW 32.0 0.0 9.6
13:10 9.9 8.5 91 999.8 25.9 S 34.2 0.0 9.6
13:14 9.8 8.4 91 999.7 25.9 NW 28.9 0.0 9.6
13:20 9.7 8.5 92 999.6 25.9 WNW 28.9 0.0 9.6
13:32 10.1 9.0 93 999.9 25.9 SW 25.9 0.0 9.6
13:56 9.4 8.2 92 999.4 25.9 W 27.3 0.0 9.6
14:37 9.9 8.8 93 999.8 25.9 SW 25.9 0.0 9.6
01:50 12.5 12.4 99 999.3 25.1 WSW 30.4 1.5 1.8
01:55 12.5 12.4 99 999.5 25.1 WSW 30.4 2.3 2.0
02:37 12.6 12.5 99 999.2 25.1 WSW 30.4 0.8 2.8
02:44 12.5 12.4 99 999.3 25.1 NW 30.4 0.8 3.0
02:50 12.6 12.5 99 999.4 25.1 WSW 30.4 0.8 3.0
02:56 12.5 12.4 99 999.1 25.1 WSW 30.4 0.8 3.1
02:59 12.5 12.4 99 999.2 25.1 S 29.8 0.8 3.3
03:00 12.5 12.4 99 998.9 25.1 S 29.8 1.5 3.3
03:01 12.5 12.4 99 999.1 25.1 SE 29.8 1.5 3.3
03:16 12.5 12.4 99 998.9 25.1 WSW 25.9 1.5 3.6
03:22 12.5 12.4 99 998.7 25.1 WSW 33.6 3.0 3.8
03:27 12.4 12.3 99 998.6 25.1 WNW 33.6 2.3 4.0
03:37 12.4 12.3 99 998.7 25.1 WSW 29.8 1.5 4.4
03:42 12.4 12.3 99 998.5 25.1 S 38.0 2.3 4.5
04:11 12.4 12.3 99 998.1 25.1 S 28.2 3.0 5.5
04:18 12.3 12.2 99 998.2 25.1 S 28.9 4.5 6.1
04:31 12.3 12.2 99 998.0 25.1 WSW 33.6 2.3 6.9
04:37 12.3 12.2 99 997.9 25.1 S 33.6 5.3 7.6
04:43 12.3 12.2 99 997.7 25.1 NW 31.1 4.5 8.0
04:57 12.4 12.3 99 997.7 25.1 S 32.7 3.8 8.9
04:58 12.4 12.3 99 997.6 25.1 S 32.7 3.0 8.9
05:20 12.4 12.3 99 997.7 25.1 WSW 36.5 0.8 9.3
05:37 12.5 12.4 99 997.6 25.1 WSW 34.2 0.8 9.5
05:57 12.4 12.3 99 997.5 25.1 NW 36.5 0.0 9.6
06:24 12.3 12.2 99 997.1 25.1 WSW 32.7 0.0 9.6
06:31 12.3 12.2 99 997.2 25.1 NW 31.1 0.0 9.6
06:42 12.3 12.2 99 997.3 25.1 WSW 33.6 0.0 9.6
06:59 12.2 12.1 99 997.2 25.1 WSW 32.0 0.0 9.6
07:35 11.9 11.8 99 997.2 25.1 NW 29.8 0.0 9.6
07:47 11.9 11.8 99 997.1 25.1 S 28.9 0.0 9.6
07:58 11.8 11.7 99 996.8 25.1 WSW 30.4 0.0 9.6
08:24 11.6 11.5 99 997.5 25.1 WSW 29.8 0.0 9.6
08:28 11.6 11.5 99 997.6 25.1 N 29.8 0.0 9.6
08:33 11.6 11.5 99 997.6 25.1 WSW 27.3 0.0 9.6
08:39 11.5 11.4 99 997.3 25.1 WNW 31.1 0.0 9.6
08:54 11.3 11.2 99 997.4 25.1 N 32.0 0.0 9.6
08:59 11.3 11.2 99 997.5 25.1 WNW 36.5 0.0 9.6
09:01 11.3 11.2 99 997.2 25.1 WNW 36.5 0.0 9.6
09:07 11.2 11.1 99 997.3 25.1 SW 36.5 0.0 9.6
09:26 11.0 10.9 99 997.9 25.1 SW 32.7 0.0 9.6
09:29 10.9 10.8 99 997.7 25.1 S 32.7 0.0 9.6
09:34 10.9 10.8 99 997.7 25.1 W 32.7 0.0 9.6
09:55 10.8 10.7 99 998.1 25.1 SW 27.3 0.0 9.6
10:05 10.8 10.7 99 998.4 25.1 SW 31.1 0.0 9.6
10:23 10.6 10.5 99 998.8 25.1 SW 27.3 0.0 9.6
10:49 10.1 10.0 99 998.9 25.1 N 28.9 0.0 9.6
10:52 10.0 9.9 99 999.1 25.1 SW 28.9 0.0 9.6
10:54 10.0 9.9 99 999.3 25.1 W 29.8 0.0 9.6
11:32 9.8 9.5 98 999.2 25.1 SE 28.9 0.0 9.6
11:42 9.7 9.4 98 999.3 25.1 W 29.8 0.0 9.6
11:45 9.7 9.4 98 999.3 25.1 W 29.8 0.0 9.6
11:59 9.4 8.8 96 999.4 25.1 SW 36.5 0.0 9.6
12:01 9.4 8.8 96 999.3 25.1 SW 36.5 0.0 9.6
12:23 10.2 9.1 93 999.8 25.1 SW 32.0 0.0 9.6
12:33 10.4 8.8 90 999.5 25.1 SW 33.6 0.0 9.6
12:42 10.4 8.7 89 999.7 25.1 W 28.9 0.0 9.6
12:44 10.4 8.5 88 999.8 25.1 NW 28.9 0.0 9.6
13:18 9.7 8.5 92 999.4 25.1 W 28.9 0.0 9.6
13:55 9.5 8.3 92 999.8 25.1 W 27.3 0.0 9.6
19:42 8.9 8.8 99 995.4 25.1 NNW 28.9 0.0 14.0
01:19 12.1 12.0 99 999.8 24.4 WSW 30.4 0.0 1.3
01:23 12.1 12.0 99 999.8 24.4 WSW 30.4 0.8 1.3
01:25 12.2 12.1 99 999.7 24.4 WSW 24.4 0.8 1.4
01:30 12.3 12.2 99 999.6 24.4 WSW 32.0 0.8 1.4
02:26 12.6 12.5 99 999.4 24.4 S 28.2 0.8 2.6
02:52 12.5 12.4 99 999.1 24.4 WSW 30.4 0.8 3.1
02:54 12.5 12.4 99 999.3 24.4 WSW 30.4 1.5 3.1
03:04 12.5 12.4 99 999.0 24.4 NW 32.7 1.5 3.3
03:09 12.5 12.4 99 998.9 24.4 S 32.7 0.8 3.4
03:15 12.5 12.4 99 998.7 24.4 WSW 28.9 1.5 3.5
03:30 12.4 12.3 99 998.7 24.4 WSW 28.2 2.3 4.2
03:35 12.4 12.3 99 998.7 24.4 S 29.8 1.5 4.3
03:41 12.4 12.3 99 998.7 24.4 NW 38.0 2.3 4.5
04:04 12.4 12.3 99 998.0 24.4 WSW 32.7 0.0 5.3
04:13 12.3 12.2 99 998.0 24.4 WSW 28.9 4.5 5.9
04:29 12.3 12.2 99 997.8 24.4 WSW 28.9 3.0 6.8
04:38 12.3 12.2 99 997.7 24.4 WSW 33.6 6.8 7.6
04:44 12.3 12.2 99 998.1 24.4 WNW 31.1 4.5 8.1
04:56 12.4 12.3 99 997.7 24.4 S 34.9 4.5 8.8
05:05 12.4 12.3 99 997.9 24.4 WSW 32.7 2.3 9.1
05:28 12.4 12.3 99 997.7 24.4 WSW 31.1 0.8 9.4
05:40 12.4 12.3 99 997.7 24.4 WNW 34.2 0.8 9.5
06:20 12.3 12.2 99 997.2 24.4 WSW 32.7 0.0 9.6
06:25 12.3 12.2 99 997.2 24.4 WSW 31.1 0.0 9.6
06:33 12.3 12.2 99 997.2 24.4 WSW 34.9 0.0 9.6
06:36 12.3 12.2 99 997.2 24.4 N 34.9 0.0 9.6
06:40 12.3 12.2 99 997.1 24.4 WSW 34.9 0.0 9.6
06:41 12.3 12.2 99 997.5 24.4 WSW 33.6 0.0 9.6
07:06 12.2 12.1 99 997.4 24.4 S 30.4 0.0 9.6
07:18 12.1 12.0 99 997.2 24.4 S 29.8 0.0 9.6
07:19 12.1 12.0 99 997.4 24.4 WSW 27.3 0.0 9.6
07:22 12.0 11.9 99 997.0 24.4 N 32.7 0.0 9.6
07:34 12.0 11.9 99 997.0 24.4 W 29.8 0.0 9.6
07:39 11.9 11.8 99 997.2 24.4 WSW 29.8 0.0 9.6
07:43 11.9 11.8 99 997.2 24.4 NW 29.8 0.0 9.6
07:52 12.0 11.9 99 997.0 24.4 WSW 30.4 0.0 9.6
08:05 11.7 11.6 99 997.2 24.4 WSW 28.2 0.0 9.6
08:16 11.7 11.6 99 997.2 24.4 NW 30.4 0.0 9.6
08:21 11.6 11.5 99 997.4 24.4 WSW 30.4 0.0 9.6
08:47 11.4 11.3 99 997.4 24.4 NW 32.0 0.0 9.6
10:20 10.7 10.6 99 998.6 24.4 SW 31.1 0.0 9.6
10:27 10.5 10.4 99 998.8 24.4 SW 31.1 0.0 9.6
10:57 10.0 9.9 99 999.4 24.4 W 29.8 0.0 9.6
11:14 9.8 9.7 99 999.0 24.4 W 32.0 0.0 9.6
11:29 9.8 9.5 98 999.4 24.4 SW 28.9 0.0 9.6
11:35 9.7 9.4 98 999.2 24.4 SW 27.3 0.0 9.6
11:37 9.7 9.4 98 999.4 24.4 SW 27.3 0.0 9.6
11:43 9.7 9.4 98 999.2 24.4 SW 29.8 0.0 9.6
11:48 9.6 9.3 98 999.4 24.4 SW 32.0 0.0 9.6
11:51 9.6 9.1 97 999.5 24.4 SW 33.6 0.0 9.6
12:07 9.5 8.9 96 999.5 24.4 SW 30.4 0.0 9.6
12:12 9.7 8.9 95 999.6 24.4 SW 30.4 0.0 9.6
12:47 10.2 8.5 89 999.7 24.4 NW 31.1 0.0 9.6
13:04 10.0 8.4 90 999.8 24.4 SW 34.2 0.0 9.6
13:19 9.7 8.5 92 999.7 24.4 SW 28.9 0.0 9.6
13:40 10.2 8.8 91 999.9 24.4 W 25.9 0.0 9.6
13:44 10.0 8.6 91 1000.0 24.4 SW 25.9 0.0 9.6
13:57 9.4 8.2 92 999.7 24.4 WNW 27.3 0.0 9.6
14:26 9.8 8.7 93 999.9 24.4 SW 24.4 0.0 9.6
18:44 9.1 9.0 99 995.7 24.4 WSW 32.0 3.0 13.8
01:13 11.7 11.6 99 999.9 23.5 WSW 27.3 0.0 1.3
01:15 11.8 11.7 99 1000.0 23.5 S 30.4 0.8 1.3
01:17 11.9 11.8 99 999.8 23.5 WSW 30.4 0.8 1.3
01:33 12.3 12.2 99 999.8 23.5 WSW 32.0 1.5 1.5
01:44 12.5 12.4 99 999.4 23.5 S 30.4 0.8 1.7
01:59 12.6 12.5 99 999.5 23.5 S 32.7 1.5 2.1
02:00 12.6 12.5 99 999.7 23.5 S 32.7 0.8 2.1
02:01 12.6 12.5 99 999.5 23.5 S 32.7 0.8 2.1
02:02 12.6 12.5 99 999.7 23.5 S 32.7 0.8 2.1
02:03 12.6 12.5 99 999.4 23.5 S 32.7 0.0 2.1
02:27 12.6 12.5 99 999.1 23.5 WSW 28.2 0.0 2.6
02:31 12.6 12.5 99 999.3 23.5 WSW 28.2 0.8 2.7
02:47 12.6 12.5 99 999.4 23.5 S 30.4 1.5 3.0
03:12 12.5 12.4 99 998.7 23.5 W 32.7 0.8 3.5
03:20 12.5 12.4 99 998.7 23.5 WSW 33.6 1.5 3.7
03:28 12.4 12.3 99 998.5 23.5 WSW 33.6 2.3 4.1
03:33 12.4 12.3 99 998.7 23.5 S 29.8 2.3 4.2
03:48 12.4 12.3 99 998.5 23.5 WSW 38.0 3.0 4.8
03:50 12.4 12.3 99 998.5 23.5 WSW 33.6 3.0 4.9
03:52 12.4 12.3 99 998.4 23.5 WSW 29.8 3.0 5.0
03:59 12.4 12.3 99 998.0 23.5 WSW 32.7 1.5 5.2
04:00 12.4 12.3 99 998.1 23.5 WSW 32.7 1.5 5.2
04:01 12.4 12.3 99 998.2 23.5 WSW 32.7 1.5 5.2
04:02 12.4 12.3 99 998.0 23.5 WSW 32.7 0.8 5.2
04:15 12.3 12.2 99 997.9 23.5 WSW 28.9 6.0 6.0
04:27 12.3 12.2 99 997.7 23.5 NNE 28.9 3.8 6.7
04:33 12.3 12.2 99 998.0 23.5 WSW 33.6 3.0 7.1
04:41 12.3 12.2 99 997.7 23.5 S 31.1 6.0 7.8
04:54 12.4 12.3 99 997.9 23.5 WSW 34.9 5.3 8.8
05:21 12.4 12.3 99 997.8 23.5 WSW 36.5 0.8 9.3
05:30 12.4 12.3 99 997.9 23.5 WSW 31.1 0.8 9.4
05:58 12.4 12.3 99 997.5 23.5 SE 36.5 0.0 9.6
06:37 12.3 12.2 99 997.2 23.5 WSW 34.9 0.0 9.6
07:31 12.0 11.9 99 997.2 23.5 WSW 29.8 0.0 9.6
07:36 12.0 11.9 99 997.1 23.5 WSW 29.8 0.0 9.6
07:38 11.9 11.8 99 997.2 23.5 WSW 29.8 0.0 9.6
07:50 11.8 11.7 99 997.2 23.5 NW 28.9 0.0 9.6
08:27 11.6 11.5 99 997.4 23.5 S 29.8 0.0 9.6
09:06 11.2 11.1 99 997.5 23.5 SW 36.5 0.0 9.6
09:12 11.1 11.0 99 997.4 23.5 SW 29.8 0.0 9.6
09:18 11.1 11.0 99 997.7 23.5 S 29.8 0.0 9.6
09:39 10.8 10.7 99 997.9 23.5 W 34.2 0.0 9.6
09:40 10.8 10.7 99 997.9 23.5 SW 34.2 0.0 9.6
09:54 10.8 10.7 99 998.1 23.5 NNW 28.2 0.0 9.6
09:59 10.8 10.7 99 998.2 23.5 S 25.9 0.0 9.6
10:06 10.8 10.7 99 998.3 23.5 S 31.1 0.0 9.6
10:40 10.2 10.1 99 998.9 23.5 SW 29.8 0.0 9.6
10:42 10.2 10.1 99 999.1 23.5 SW 29.8 0.0 9.6
10:48 10.1 10.0 99 999.0 23.5 NNW 28.9 0.0 9.6
11:04 9.9 9.8 99 999.4 23.5 SW 30.4 0.0 9.6
11:18 9.9 9.8 99 999.2 23.5 SW 30.4 0.0 9.6
11:25 9.8 9.7 99 999.4 23.5 W 28.9 0.0 9.6
11:30 9.7 9.4 98 999.3 23.5 SW 28.9 0.0 9.6
11:38 9.7 9.4 98 999.2 23.5 SW 27.3 0.0 9.6
11:46 9.7 9.4 98 999.3 23.5 NW 32.0 0.0 9.6
11:49 9.6 9.3 98 999.3 23.5 SW 32.0 0.0 9.6
12:18 10.0 8.9 93 999.7 23.5 SW 32.0 0.0 9.6
12:34 10.4 8.7 89 999.7 23.5 W 33.6 0.0 9.6
12:37 10.4 8.5 88 999.8 23.5 W 29.8 0.0 9.6
12:41 10.5 8.8 89 999.9 23.5 SW 29.8 0.0 9.6
12:54 10.0 8.4 90 999.7 23.5 SW 31.1 0.0 9.6
12:56 10.0 8.4 90 999.8 23.5 SW 28.9 0.0 9.6
13:24 9.7 8.5 92 999.7 23.5 W 25.9 0.0 9.6
15:03 9.3 8.1 92 999.7 23.5 SW 23.5 0.0 9.6
01:12 11.6 11.5 99 999.9 22.8 WSW 27.3 0.0 1.2
01:24 12.2 12.1 99 999.7 22.8 WSW 24.4 0.8 1.4
01:46 12.4 12.3 99 999.2 22.8 WSW 30.4 1.5 1.8
01:51 12.5 12.4 99 999.5 22.8 WSW 30.4 1.5 1.9
02:07 12.6 12.5 99 999.5 22.8 S 32.7 3.0 2.3
02:08 12.6 12.5 99 999.5 22.8 WSW 32.7 3.8 2.4
02:09 12.6 12.5 99 999.5 22.8 N 32.7 3.8 2.4
02:11 12.6 12.5 99 999.6 22.8 WSW 32.7 1.5 2.5
03:11 12.5 12.4 99 998.6 22.8 S 32.7 0.8 3.5
03:17 12.4 12.3 99 999.0 22.8 NW 25.9 1.5 3.7
03:19 12.5 12.4 99 998.7 22.8 S 33.6 1.5 3.7
03:34 12.4 12.3 99 998.7 22.8 S 29.8 2.3 4.3
04:26 12.3 12.2 99 997.8 22.8 S 28.9 4.5 6.7
05:09 12.4 12.3 99 997.9 22.8 WSW 32.7 1.5 9.2
05:46 12.5 12.4 99 997.6 22.8 S 34.9 0.0 9.6
06:04 12.4 12.3 99 997.4 22.8 W 34.9 0.0 9.6
06:16 12.3 12.2 99 997.3 22.8 WSW 32.7 0.0 9.6
06:17 12.3 12.2 99 997.2 22.8 S 32.7 0.0 9.6
06:28 12.3 12.2 99 997.2 22.8 WSW 31.1 0.0 9.6
06:38 12.3 12.2 99 997.2 22.8 WSW 34.9 0.0 9.6
06:48 12.3 12.2 99 997.3 22.8 WSW 38.7 0.0 9.6
06:50 12.3 12.2 99 997.3 22.8 WSW 38.7 0.0 9.6
07:44 11.9 11.8 99 997.2 22.8 WSW 28.9 0.0 9.6
08:45 11.4 11.3 99 997.5 22.8 N 32.0 0.0 9.6
08:57 11.3 11.2 99 997.7 22.8 S 32.0 0.0 9.6
09:08 11.2 11.1 99 997.5 22.8 SW 36.5 0.0 9.6
09:14 11.1 11.0 99 997.5 22.8 WNW 29.8 0.0 9.6
09:20 11.0 10.9 99 997.7 22.8 SW 29.8 0.0 9.6
09:50 10.8 10.7 99 998.1 22.8 W 28.2 0.0 9.6
10:15 10.7 10.6 99 998.5 22.8 SW 31.1 0.0 9.6
10:22 10.7 10.6 99 998.7 22.8 NNE 27.3 0.0 9.6
10:31 10.4 10.3 99 998.9 22.8 W 31.1 0.0 9.6
10:51 10.0 9.9 99 998.9 22.8 W 28.9 0.0 9.6
11:36 9.7 9.4 98 999.2 22.8 SW 27.3 0.0 9.6
12:04 9.4 8.8 96 999.3 22.8 W 36.5 0.0 9.6
12:06 9.5 8.9 96 999.5 22.8 W 30.4 0.0 9.6
12:21 10.1 9.0 93 999.5 22.8 SW 32.0 0.0 9.6
12:30 10.3 8.7 90 999.7 22.8 SW 33.6 0.0 9.6
12:38 10.4 8.5 88 999.8 22.8 SW 29.8 0.0 9.6
12:50 10.1 8.4 89 999.6 22.8 SW 31.1 0.0 9.6
12:55 10.0 8.4 90 999.8 22.8 SW 28.9 0.0 9.6
13:02 10.0 8.4 90 999.8 22.8 S 34.2 0.0 9.6
13:29 9.9 8.8 93 999.6 22.8 W 25.9 0.0 9.6
13:52 9.6 8.2 91 999.8 22.8 WNW 27.3 0.0 9.6
13:54 9.5 8.3 92 999.8 22.8 N 27.3 0.0 9.6
13:58 9.4 8.2 92 999.7 22.8 SW 27.3 0.0 9.6
14:23 9.7 8.6 93 999.9 22.8 NNW 22.8 0.0 9.6
14:24 9.8 8.7 93 999.8 22.8 SW 22.8 0.0 9.6
19:20 8.5 8.4 99 995.8 22.8 WSW 29.8 0.0 13.9
19:58 8.9 8.8 99 995.3 22.8 WSW 22.8 0.0 14.0
20:08 8.3 8.2 99 995.8 22.8 N 28.2 3.0 14.3
20:55 7.5 7.4 99 995.8 22.8 WSW 22.8 0.0 14.4
01:31 12.3 12.2 99 999.7 22.1 S 32.0 0.8 1.4
01:40 12.4 12.3 99 999.5 22.1 WSW 30.4 1.5 1.6
01:41 12.4 12.3 99 999.4 22.1 WSW 30.4 0.8 1.6
01:47 12.5 12.4 99 999.5 22.1 WSW 30.4 0.8 1.8
01:54 12.5 12.4 99 999.4 22.1 WSW 30.4 1.5 2.0
02:14 12.6 12.5 99 999.4 22.1 WSW 32.7 1.5 2.5
02:24 12.5 12.4 99 999.3 22.1 WSW 28.2 0.8 2.6
02:36 12.5 12.4 99 999.5 22.1 WSW 30.4 1.5 2.8
02:48 12.5 12.4 99 999.2 22.1 S 30.4 0.8 3.0
02:51 12.5 12.4 99 999.1 22.1 S 30.4 0.8 3.1
03:21 12.5 12.4 99 998.7 22.1 WSW 33.6 1.5 3.8
03:56 12.4 12.3 99 998.3 22.1 S 29.8 1.5 5.1
03:57 12.4 12.3 99 998.3 22.1 WSW 32.7 1.5 5.1
03:58 12.4 12.3 99 998.1 22.1 WSW 32.7 1.5 5.2
04:05 12.4 12.3 99 998.0 22.1 WSW 32.7 1.5 5.3
04:19 12.3 12.2 99 998.0 22.1 WSW 28.9 3.0 6.2
04:36 12.3 12.2 99 998.1 22.1 WNW 33.6 4.5 7.4
04:53 12.4 12.3 99 997.8 22.1 S 34.9 4.5 8.7
05:25 12.4 12.3 99 997.8 22.1 WSW 36.5 0.0 9.4
06:43 12.3 12.2 99 997.3 22.1 WSW 33.6 0.0 9.6
06:47 12.3 12.2 99 997.2 22.1 WSW 38.7 0.0 9.6
07:00 12.2 12.1 99 997.5 22.1 N 32.0 0.0 9.6
07:01 12.2 12.1 99 997.3 22.1 N 30.4 0.0 9.6
07:16 12.1 12.0 99 997.2 22.1 WSW 29.8 0.0 9.6
07:59 11.9 11.8 99 997.1 22.1 WSW 30.4 0.0 9.6
08:00 11.9 11.8 99 997.3 22.1 WSW 30.4 0.0 9.6
08:17 11.6 11.5 99 997.2 22.1 WSW 30.4 0.0 9.6
08:32 11.6 11.5 99 997.6 22.1 WSW 28.9 0.0 9.6
08:38 11.5 11.4 99 997.6 22.1 WSW 31.1 0.0 9.6
08:41 11.5 11.4 99 997.6 22.1 S 31.1 0.0 9.6
08:48 11.4 11.3 99 997.7 22.1 W 32.0 0.0 9.6
09:09 11.2 11.1 99 997.5 22.1 NW 29.8 0.0 9.6
09:19 11.1 11.0 99 997.7 22.1 S 29.8 0.0 9.6
09:28 11.0 10.9 99 997.9 22.1 S 32.7 0.0 9.6
09:32 10.9 10.8 99 997.7 22.1 SW 32.7 0.0 9.6
09:35 10.9 10.8 99 998.0 22.1 NNW 28.9 0.0 9.6
10:11 10.7 10.6 99 998.3 22.1 SW 31.1 0.0 9.6
10:18 10.7 10.6 99 998.3 22.1 W 31.1 0.0 9.6
10:28 10.5 10.4 99 999.0 22.1 SW 31.1 0.0 9.6
10:43 10.2 10.1 99 998.9 22.1 SW 29.8 0.0 9.6
10:59 10.0 9.9 99 999.6 22.1 SW 29.8 0.0 9.6
11:00 10.0 9.9 99 999.3 22.1 SW 29.8 0.0 9.6
11:01 10.0 9.9 99 999.3 22.1 SW 29.8 0.0 9.6
11:08 9.9 9.8 99 999.4 22.1 SW 32.0 0.0 9.6
11:24 9.8 9.7 99 999.2 22.1 SW 28.9 0.0 9.6
11:31 9.8 9.5 98 999.2 22.1 SW 28.9 0.0 9.6
11:34 9.7 9.4 98 999.4 22.1 W 27.3 0.0 9.6
11:56 9.4 8.8 96 999.5 22.1 W 36.5 0.0 9.6
11:57 9.4 8.8 96 999.5 22.1 SW 36.5 0.0 9.6
12:15 10.0 9.1 94 999.6 22.1 SW 32.0 0.0 9.6
12:17 10.0 9.1 94 999.7 22.1 SW 32.0 0.0 9.6
12:29 10.3 8.9 91 999.7 22.1 NNW 33.6 0.0 9.6
12:52 10.1 8.4 89 999.9 22.1 W 31.1 0.0 9.6
12:57 10.0 8.4 90 1000.0 22.1 SW 28.9 0.0 9.6
12:58 10.0 8.4 90 1000.1 22.1 SW 28.9 0.0 9.6
13:16 9.8 8.4 91 999.7 22.1 SW 28.9 0.0 9.6
13:21 9.7 8.5 92 999.7 22.1 SW 25.9 0.0 9.6
13:27 9.8 8.7 93 999.7 22.1 SW 25.9 0.0 9.6
13:37 10.3 9.1 92 999.7 22.1 W 25.9 0.0 9.6
18:47 8.9 8.8 99 995.7 22.1 WSW 32.0 1.5 13.9
18:48 8.8 8.7 99 995.7 22.1 WSW 32.0 1.5 13.9
18:49 8.6 8.5 99 995.6 22.1 NW 32.0 0.8 13.9
19:43 8.9 8.8 99 995.6 22.1 WSW 28.9 0.0 14.0
19:52 8.9 8.8 99 995.3 22.1 WSW 25.1 0.0 14.0
19:54 8.9 8.8 99 995.4 22.1 WSW 22.1 0.0 14.0
00:57 10.2 10.1 99 1000.1 21.3 WSW 21.3 0.8 1.1
01:16 11.9 11.8 99 999.7 21.3 WSW 30.4 0.8 1.3
01:22 12.1 12.0 99 999.6 21.3 S 30.4 0.8 1.3
01:34 12.4 12.3 99 999.6 21.3 WSW 32.0 0.8 1.5
01:43 12.4 12.3 99 999.7 21.3 NW 30.4 0.8 1.7
02:33 12.6 12.5 99 999.4 21.3 S 28.2 0.8 2.8
03:05 12.5 12.4 99 999.2 21.3 S 32.7 0.8 3.3
03:06 12.5 12.4 99 998.9 21.3 S 32.7 1.5 3.4
03:14 12.5 12.4 99 998.7 21.3 S 28.9 1.5 3.5
03:29 12.4 12.3 99 998.6 21.3 WSW 28.2 2.3 4.1
04:06 12.4 12.3 99 998.2 21.3 S 32.7 1.5 5.3
05:08 12.4 12.3 99 997.8 21.3 S 32.7 2.3 9.2
05:50 12.5 12.4 99 997.6 21.3 WSW 34.9 0.8 9.6
06:18 12.3 12.2 99 997.2 21.3 WSW 32.7 0.0 9.6
06:19 12.3 12.2 99 997.1 21.3 S 32.7 0.0 9.6
08:08 11.7 11.6 99 997.1 21.3 WNW 30.4 0.0 9.6
08:13 11.7 11.6 99 997.2 21.3 NW 30.4 0.0 9.6
08:30 11.6 11.5 99 997.5 21.3 WNW 28.9 0.0 9.6
08:53 11.3 11.2 99 997.4 21.3 NW 32.0 0.0 9.6
09:41 10.8 10.7 99 997.8 21.3 SW 34.2 0.0 9.6
09:48 10.8 10.7 99 998.2 21.3 W 28.2 0.0 9.6
09:49 10.8 10.7 99 998.2 21.3 SW 28.2 0.0 9.6
10:16 10.7 10.6 99 998.6 21.3 SW 31.1 0.0 9.6
10:19 10.7 10.6 99 998.4 21.3 SW 31.1 0.0 9.6
10:21 10.7 10.6 99 998.6 21.3 SW 27.3 0.0 9.6
10:32 10.4 10.3 99 999.0 21.3 SW 31.1 0.0 9.6
11:41 9.7 9.4 98 999.2 21.3 NW 29.8 0.0 9.6
11:58 9.4 8.8 96 999.6 21.3 SW 36.5 0.0 9.6
12:10 9.7 9.1 96 999.5 21.3 S 30.4 0.0 9.6
12:14 9.9 9.0 94 999.7 21.3 WNW 32.0 0.0 9.6
12:53 10.0 8.3 89 999.7 21.3 WNW 31.1 0.0 9.6
13:03 10.0 8.4 90 999.8 21.3 WNW 34.2 0.0 9.6
13:09 9.9 8.5 91 999.8 21.3 SW 34.2 0.0 9.6
13:12 9.9 8.5 91 999.8 21.3 SW 28.9 0.0 9.6
13:15 9.8 8.4 91 999.7 21.3 SW 28.9 0.0 9.6
13:38 10.3 9.1 92 999.7 21.3 SW 25.9 0.0 9.6
13:50 9.6 8.2 91 999.9 21.3 NW 27.3 0.0 9.6
14:15 9.3 8.2 93 999.7 21.3 SW 21.3 0.0 9.6
14:25 9.8 8.7 93 999.9 21.3 SW 22.8 0.0 9.6
14:40 9.9 8.8 93 999.9 21.3 S 25.9 0.0 9.6
14:49 9.6 8.5 93 999.8 21.3 SW 21.3 0.0 9.6
14:50 9.6 8.5 93 1000.0 21.3 SW 21.3 0.0 9.6
14:52 9.6 8.5 93 1000.0 21.3 W 21.3 0.0 9.6
18:33 9.0 8.9 99 995.5 21.3 S 25.1 0.8 12.7
18:35 9.1 9.0 99 995.4 21.3 S 25.1 0.0 12.7
18:42 9.3 9.2 99 995.8 21.3 WSW 32.0 11.3 13.7
18:51 8.6 8.5 99 995.5 21.3 WNW 32.0 0.0 13.9
19:53 8.9 8.8 99 995.5 21.3 WSW 22.1 0.0 14.0
20:13 7.9 7.8 99 995.4 21.3 WSW 28.2 1.5 14.4
22:12 8.2 8.1 99 996.2 21.3 SW 21.3 0.0 14.4
22:15 8.1 8.0 99 996.1 21.3 W 21.3 0.0 14.4
22:17 8.1 8.0 99 996.0 21.3 WNW 21.3 0.0 14.4
23:23 8.0 7.9 99 996.1 21.3 SW 21.3 0.0 14.4
01:02 10.8 10.7 99 1000.1 20.6 S 22.1 0.0 1.2
01:08 11.3 11.2 99 1000.1 20.6 WSW 22.1 0.0 1.2
01:09 11.3 11.2 99 1000.1 20.6 WSW 22.1 0.0 1.2
02:05 12.6 12.5 99 999.7 20.6 WSW 32.7 2.3 2.3
02:13 12.5 12.4 99 999.5 20.6 S 32.7 0.8 2.5
02:15 12.6 12.5 99 999.7 20.6 S 32.7 0.8 2.5
02:22 12.6 12.5 99 999.5 20.6 NW 28.2 1.5 2.6
02:41 12.6 12.5 99 999.2 20.6 WSW 30.4 0.8 2.9
03:08 12.5 12.4 99 998.9 20.6 W 32.7 1.5 3.4
03:23 12.5 12.4 99 998.7 20.6 WSW 33.6 2.3 3.9
04:42 12.3 12.2 99 997.7 20.6 WSW 31.1 6.0 7.9
05:47 12.5 12.4 99 997.7 20.6 WSW 34.9 0.8 9.6
06:54 12.2 12.1 99 997.3 20.6 NNW 38.7 0.0 9.6
07:10 12.2 12.1 99 997.1 20.6 S 30.4 0.0 9.6
07:41 11.9 11.8 99 997.2 20.6 S 29.8 0.0 9.6
08:25 11.6 11.5 99 997.3 20.6 WSW 29.8 0.0 9.6
09:52 10.8 10.7 99 998.2 20.6 W 28.2 0.0 9.6
10:25 10.6 10.5 99 998.8 20.6 W 27.3 0.0 9.6
10:34 10.3 10.2 99 999.0 20.6 SW 31.1 0.0 9.6
10:37 10.2 10.1 99 998.8 20.6 SW 29.8 0.0 9.6
12:02 9.4 8.8 96 999.3 20.6 W 36.5 0.0 9.6
12:05 9.4 8.8 96 999.6 20.6 SW 36.5 0.0 9.6
12:09 9.5 8.9 96 999.7 20.6 WNW 30.4 0.0 9.6
12:20 10.1 9.0 93 999.4 20.6 N 32.0 0.0 9.6
13:07 9.9 8.5 91 999.7 20.6 NW 34.2 0.0 9.6
13:25 9.7 8.5 92 999.6 20.6 SW 25.9 0.0 9.6
13:33 10.2 9.1 93 999.7 20.6 SW 25.9 0.0 9.6
13:42 10.1 8.7 91 999.8 20.6 W 25.9 0.0 9.6
13:45 9.9 8.5 91 999.8 20.6 SW 25.9 0.0 9.6
13:59 9.4 8.2 92 999.7 20.6 NW 27.3 0.0 9.6
14:00 9.4 8.2 92 999.6 20.6 NW 25.9 0.0 9.6
14:01 9.4 8.2 92 999.7 20.6 NW 25.9 0.0 9.6
14:02 9.4 8.2 92 999.7 20.6 NW 25.9 0.0 9.6
14:07 9.4 8.3 93 999.5 20.6 NW 22.8 0.0 9.6
14:14 9.3 8.2 93 999.7 20.6 S 20.6 0.0 9.6
14:17 9.4 8.3 93 999.6 20.6 W 21.3 0.0 9.6
14:19 9.5 8.4 93 999.7 20.6 NW 21.3 0.0 9.6
14:44 9.8 8.7 93 999.9 20.6 SW 25.9 0.0 9.6
14:59 9.4 8.3 93 1000.1 20.6 SW 22.1 0.0 9.6
18:43 9.2 9.1 99 995.8 20.6 WSW 32.0 9.1 13.8
18:57 8.2 8.1 99 995.8 20.6 WSW 22.8 0.0 13.9
19:25 8.6 8.5 99 995.9 20.6 WSW 22.8 0.0 13.9
19:46 8.9 8.8 99 995.3 20.6 WSW 28.9 0.0 14.0
19:48 8.9 8.8 99 995.6 20.6 WSW 28.9 0.0 14.0
19:51 8.9 8.8 99 995.5 20.6 WSW 25.1 0.0 14.0
20:53 7.5 7.4 99 996.0 20.6 WSW 20.6 0.0 14.4
22:07 8.3 8.2 99 996.1 20.6 N 20.6 0.0 14.4
22:23 8.0 7.9 99 996.1 20.6 SW 21.3 0.0 14.4
22:37 7.9 7.8 99 996.3 20.6 SW 26.6 0.0 14.4
22:48 7.9 7.8 99 996.3 20.6 SW 20.6 0.0 14.4
23:57 7.9 7.8 99 995.9 20.6 SW 20.6 0.0 14.4
01:03 10.9 10.8 99 1000.2 19.7 WSW 22.1 0.8 1.2
01:10 11.4 11.3 99 1000.1 19.7 S 22.1 0.0 1.2
01:39 12.4 12.3 99 999.6 19.7 WSW 30.4 1.5 1.6
03:46 12.4 12.3 99 998.4 19.7 WSW 38.0 3.0 4.7
06:39 12.3 12.2 99 997.2 19.7 WSW 34.9 0.0 9.6
07:17 12.1 12.0 99 997.2 19.7 WSW 29.8 0.0 9.6
07:40 11.9 11.8 99 996.9 19.7 WSW 29.8 0.0 9.6
07:45 11.9 11.8 99 997.2 19.7 WSW 28.9 0.0 9.6
08:20 11.6 11.5 99 997.3 19.7 NW 30.4 0.0 9.6
08:23 11.6 11.5 99 997.1 19.7 WSW 30.4 0.0 9.6
08:31 11.6 11.5 99 997.4 19.7 WNW 28.9 0.0 9.6
09:42 10.8 10.7 99 997.9 19.7 SW 34.2 0.0 9.6
09:57 10.7 10.6 99 998.2 19.7 SW 25.9 0.0 9.6
10:29 10.4 10.3 99 999.0 19.7 SW 31.1 0.0 9.6
10:30 10.4 10.3 99 999.1 19.7 SW 31.1 0.0 9.6
10:55 10.0 9.9 99 999.4 19.7 WNW 29.8 0.0 9.6
13:51 9.6 8.2 91 999.9 19.7 WNW 27.3 0.0 9.6
14:21 9.6 8.5 93 999.8 19.7 SW 21.3 0.0 9.6
14:38 9.9 8.8 93 999.9 19.7 W 25.9 0.0 9.6
14:43 9.8 8.7 93 999.8 19.7 SW 25.9 0.0 9.6
14:48 9.7 8.6 93 1000.0 19.7 SW 21.3 0.0 9.6
14:53 9.6 8.5 93 999.9 19.7 SW 21.3 0.0 9.6
15:00 9.4 8.3 93 1000.0 19.7 SW 22.1 0.0 9.6
15:01 9.4 8.3 93 999.8 19.7 SW 22.1 0.0 9.6
15:02 9.3 8.1 92 999.9 19.7 SW 22.1 0.0 9.6
15:07 9.3 8.2 93 999.9 19.7 SW 23.5 0.0 9.6
18:38 9.3 9.2 99 995.6 19.7 S 27.3 3.0 13.5
18:46 9.0 8.9 99 995.7 19.7 WSW 32.0 3.0 13.9
18:52 8.4 8.3 99 995.7 19.7 NNW 24.4 0.0 13.9
18:58 8.2 8.1 99 995.8 19.7 WSW 22.8 0.0 13.9
19:16 8.4 8.3 99 995.9 19.7 WSW 29.8 0.0 13.9
19:17 8.4 8.3 99 995.9 19.7 WSW 29.8 0.0 13.9
19:24 8.6 8.5 99 995.9 19.7 WSW 23.5 0.0 13.9
19:30 8.7 8.6 99 995.7 19.7 WSW 22.8 0.0 13.9
19:44 8.9 8.8 99 995.7 19.7 WSW 28.9 0.0 14.0
21:58 8.2 8.1 99 995.9 19.7 S 21.3 0.0 14.4
22:14 8.2 8.1 99 996.1 19.7 SW 21.3 0.0 14.4
22:41 7.9 7.8 99 996.2 19.7 WNW 20.6 0.0 14.4
00:59 10.4 10.3 99 1000.1 19.0 WSW 21.3 0.0 1.1
01:00 10.4 10.3 99 1000.0 19.0 WSW 21.3 0.0 1.1
01:01 10.4 10.3 99 999.9 19.0 WSW 21.3 0.0 1.1
01:21 12.1 12.0 99 999.8 19.0 S 30.4 0.8 1.3
01:26 12.3 12.2 99 999.7 19.0 WSW 24.4 0.8 1.4
02:18 12.6 12.5 99 999.3 19.0 NW 30.4 1.5 2.6
05:26 12.4 12.3 99 997.8 19.0 WSW 31.1 0.8 9.4
05:27 12.4 12.3 99 997.9 19.0 WSW 31.1 0.8 9.4
06:22 12.3 12.2 99 997.1 19.0 W 32.7 0.0 9.6
07:21 12.1 12.0 99 997.2 19.0 WSW 32.7 0.0 9.6
09:56 10.7 10.6 99 998.3 19.0 SW 25.9 0.0 9.6
10:14 10.7 10.6 99 998.4 19.0 NE 31.1 0.0 9.6
10:56 10.0 9.9 99 999.2 19.0 W 29.8 0.0 9.6
11:33 9.7 9.4 98 999.5 19.0 WNW 27.3 0.0 9.6
12:39 10.5 8.8 89 999.8 19.0 W 29.8 0.0 9.6
12:40 10.5 8.8 89 999.7 19.0 SW 29.8 0.0 9.6
12:48 10.2 8.5 89 999.7 19.0 W 31.1 0.0 9.6
13:23 9.6 8.4 92 999.5 19.0 NW 25.9 0.0 9.6
13:34 10.2 9.0 92 999.8 19.0 W 25.9 0.0 9.6
13:35 10.3 9.1 92 999.7 19.0 SW 25.9 0.0 9.6
13:53 9.5 8.3 92 999.9 19.0 SW 27.3 0.0 9.6
14:11 9.3 8.2 93 999.5 19.0 W 20.6 0.0 9.6
14:16 9.4 8.3 93 999.5 19.0 W 21.3 0.0 9.6
14:20 9.6 8.5 93 999.7 19.0 SW 21.3 0.0 9.6
14:46 9.7 8.6 93 1000.0 19.0 SW 25.9 0.0 9.6
15:06 9.3 8.2 93 1000.0 19.0 SW 23.5 0.0 9.6
18:30 8.9 8.8 99 995.5 19.0 WSW 19.0 0.8 12.7
18:36 9.2 9.1 99 995.2 19.0 S 25.1 0.0 12.8
18:37 9.2 9.1 99 995.5 19.0 S 25.1 0.8 12.9
18:53 8.3 8.2 99 995.9 19.0 S 24.4 0.0 13.9
18:55 8.2 8.1 99 995.7 19.0 WSW 22.8 0.0 13.9
19:19 8.4 8.3 99 995.9 19.0 N 29.8 0.0 13.9
19:31 8.8 8.7 99 995.6 19.0 S 20.6 0.0 13.9
19:35 8.8 8.7 99 995.7 19.0 WSW 20.6 1.5 14.0
19:47 8.9 8.8 99 995.5 19.0 WSW 28.9 0.0 14.0
20:57 7.5 7.4 99 995.8 19.0 WSW 22.8 0.0 14.4
21:30 7.9 7.8 99 995.7 19.0 WSW 19.0 0.0 14.4
21:53 8.2 8.1 99 995.7 19.0 N 21.3 0.0 14.4
22:00 8.2 8.1 99 995.9 19.0 SW 21.3 0.0 14.4
22:01 8.2 8.1 99 995.8 19.0 SW 21.3 0.0 14.4
22:02 8.2 8.1 99 995.8 19.0 SW 19.7 0.0 14.4
22:03 8.2 8.1 99 996.0 19.0 SW 19.7 0.0 14.4
22:04 8.2 8.1 99 995.9 19.0 SW 19.7 0.0 14.4
22:06 8.2 8.1 99 996.0 19.0 SW 19.7 0.0 14.4
22:38 7.9 7.8 99 996.1 19.0 S 26.6 0.0 14.4
22:58 8.0 7.9 99 995.9 19.0 SW 20.6 0.0 14.4
23:24 8.0 7.9 99 996.1 19.0 S 21.3 0.0 14.4
01:18 12.0 11.9 99 1000.0 18.3 WSW 30.4 0.8 1.3
01:20 12.1 12.0 99 999.9 18.3 NW 30.4 0.8 1.3
04:16 12.3 12.2 99 998.0 18.3 S 28.9 5.3 6.0
06:03 12.4 12.3 99 997.4 18.3 WSW 34.9 0.0 9.6
07:14 12.2 12.1 99 997.3 18.3 WSW 29.8 0.0 9.6
07:25 12.0 11.9 99 997.2 18.3 WSW 32.7 0.0 9.6
08:04 11.7 11.6 99 997.2 18.3 WSW 28.2 0.0 9.6
08:11 11.7 11.6 99 997.3 18.3 WSW 30.4 0.0 9.6
08:49 11.4 11.3 99 997.6 18.3 NW 32.0 0.0 9.6
08:50 11.4 11.3 99 997.5 18.3 NW 32.0 0.0 9.6
10:04 10.7 10.6 99 998.6 18.3 SW 31.1 0.0 9.6
10:33 10.3 10.2 99 998.9 18.3 SW 31.1 0.0 9.6
10:58 10.0 9.9 99 999.2 18.3 SW 29.8 0.0 9.6
13:22 9.7 8.5 92 999.7 18.3 SW 25.9 0.0 9.6
13:46 9.9 8.5 91 999.9 18.3 W 25.9 0.0 9.6
14:04 9.4 8.3 93 999.6 18.3 SW 25.9 0.0 9.6
14:12 9.3 8.2 93 999.7 18.3 W 20.6 0.0 9.6
14:18 9.5 8.4 93 999.7 18.3 SW 21.3 0.0 9.6
14:27 9.9 8.8 93 999.8 18.3 SW 24.4 0.0 9.6
14:36 9.9 8.8 93 999.9 18.3 SW 24.4 0.0 9.6
14:39 9.9 8.8 93 999.7 18.3 SW 25.9 0.0 9.6
14:57 9.4 8.3 93 1000.0 18.3 SW 21.3 0.0 9.6
18:54 8.3 8.2 99 995.8 18.3 WSW 24.4 0.0 13.9
18:59 8.1 8.0 99 995.7 18.3 SE 22.8 0.0 13.9
19:01 8.1 8.0 99 995.7 18.3 SE 22.8 0.0 13.9
19:02 8.1 8.0 99 995.8 18.3 SE 21.3 0.0 13.9
19:03 8.1 8.0 99 995.8 18.3 SE 21.3 0.0 13.9
19:05 8.1 8.0 99 995.7 18.3 SE 21.3 0.0 13.9
19:06 8.1 8.0 99 995.9 18.3 SE 21.3 0.0 13.9
19:07 8.2 8.1 99 995.8 18.3 WSW 21.3 0.0 13.9
19:08 8.2 8.1 99 996.0 18.3 WSW 18.3 0.0 13.9
19:22 8.5 8.4 99 995.9 18.3 WSW 29.8 0.0 13.9
19:27 8.7 8.6 99 995.8 18.3 S 22.8 0.0 13.9
19:37 8.9 8.8 99 995.6 18.3 WSW 19.7 1.5 14.0
19:41 8.9 8.8 99 995.7 18.3 WSW 28.9 0.0 14.0
19:49 8.9 8.8 99 995.6 18.3 WSW 28.9 0.0 14.0
19:56 8.9 8.8 99 995.3 18.3 WSW 22.1 0.0 14.0
20:10 8.1 8.0 99 995.7 18.3 WNW 28.2 3.8 14.4
20:21 7.5 7.4 99 995.7 18.3 WSW 21.3 0.0 14.4
21:41 8.1 8.0 99 995.8 18.3 N 19.0 0.0 14.4
21:46 8.1 8.0 99 995.8 18.3 S 18.3 0.0 14.4
21:55 8.2 8.1 99 995.9 18.3 SW 21.3 0.0 14.4
22:09 8.3 8.2 99 996.1 18.3 SW 20.6 0.0 14.4
22:18 8.1 8.0 99 996.1 18.3 SW 21.3 0.0 14.4
22:42 7.9 7.8 99 996.4 18.3 S 20.6 0.0 14.4
22:50 8.0 7.9 99 996.3 18.3 S 20.6 0.0 14.4
23:14 8.0 7.9 99 996.2 18.3 SW 18.3 0.0 14.4
03:47 12.4 12.3 99 998.5 17.4 WSW 38.0 2.3 4.7
07:27 12.0 11.9 99 997.3 17.4 WSW 32.7 0.0 9.6
12:31 10.3 8.7 90 999.6 17.4 W 33.6 0.0 9.6
13:06 9.9 8.5 91 999.9 17.4 SW 34.2 0.0 9.6
13:30 10.0 8.9 93 999.7 17.4 SW 24.4 0.0 9.6
14:22 9.6 8.5 93 999.7 17.4 SW 21.3 0.0 9.6
14:34 9.9 8.8 93 999.9 17.4 SW 24.4 0.0 9.6
14:41 9.8 8.7 93 1000.0 17.4 SW 25.9 0.0 9.6
14:42 9.8 8.7 93 999.8 17.4 SW 25.9 0.0 9.6
15:13 9.2 8.1 93 999.9 17.4 SW 19.7 0.0 9.6
15:45 8.9 8.0 94 999.7 17.4 SW 20.6 0.0 9.6
20:14 7.8 7.7 99 995.7 17.4 W 28.2 1.5 14.4
20:20 7.6 7.5 99 995.6 17.4 NW 21.3 0.0 14.4
20:52 7.5 7.4 99 996.0 17.4 WSW 17.4 0.0 14.4
21:40 8.0 7.9 99 995.7 17.4 S 19.7 0.0 14.4
22:10 8.3 8.2 99 996.2 17.4 SW 20.6 0.0 14.4
22:59 8.0 7.9 99 996.1 17.4 SW 25.1 0.0 14.4
23:00 8.0 7.9 99 996.2 17.4 SW 25.1 0.0 14.4
23:01 8.0 7.9 99 996.2 17.4 SW 25.1 0.0 14.4
23:03 8.0 7.9 99 996.1 17.4 SW 25.1 0.0 14.4
23:04 8.0 7.9 99 996.2 17.4 SW 25.1 0.0 14.4
23:05 8.0 7.9 99 996.1 17.4 SW 25.1 0.0 14.4
23:06 8.0 7.9 99 996.1 17.4 SW 25.1 0.0 14.4
23:10 8.0 7.9 99 996.2 17.4 SW 18.3 0.0 14.4
01:04 10.9 10.8 99 1000.0 16.8 NNW 22.1 0.8 1.2
01:35 12.3 12.2 99 999.7 16.8 WSW 32.0 0.8 1.5
07:07 12.2 12.1 99 997.3 16.8 WSW 30.4 0.0 9.6
07:49 11.9 11.8 99 997.1 16.8 WSW 28.9 0.0 9.6
10:03 10.8 10.7 99 998.3 16.8 SW 31.1 0.0 9.6
11:21 9.9 9.8 99 999.2 16.8 WNW 30.4 0.0 9.6
13:28 9.9 8.8 93 999.8 16.8 S 25.9 0.0 9.6
14:10 9.4 8.3 93 999.6 16.8 W 20.6 0.0 9.6
14:47 9.7 8.6 93 999.9 16.8 SW 25.9 0.0 9.6
14:56 9.5 8.4 93 999.9 16.8 SW 21.3 0.0 9.6
15:04 9.3 8.1 92 1000.0 16.8 SW 23.5 0.0 9.6
15:09 9.3 8.1 92 999.7 16.8 W 23.5 0.0 9.6
15:25 9.1 8.0 93 999.9 16.8 W 18.3 0.0 9.6
15:54 8.8 7.9 94 999.3 16.8 SW 20.6 0.0 9.6
16:57 8.7 8.4 98 998.9 16.8 NNW 16.8 0.0 9.6
18:32 9.0 8.9 99 995.5 16.8 S 19.0 0.8 12.7
20:19 7.7 7.6 99 995.7 16.8 WSW 22.8 0.0 14.4
20:22 7.5 7.4 99 995.7 16.8 WSW 21.3 0.0 14.4
20:49 7.4 7.3 99 995.9 16.8 W 16.8 0.0 14.4
21:42 8.1 8.0 99 995.8 16.8 S 19.0 0.0 14.4
21:45 8.1 8.0 99 995.7 16.8 N 19.0 0.0 14.4
22:53 8.0 7.9 99 996.1 16.8 SW 20.6 0.0 14.4
22:56 8.0 7.9 99 996.2 16.8 NW 20.6 0.0 14.4
23:09 8.0 7.9 99 996.2 16.8 SW 25.1 0.0 14.4
23:27 8.0 7.9 99 995.9 16.8 SW 21.3 0.0 14.4
23:50 7.9 7.8 99 995.9 16.8 S 19.7 0.0 14.4
23:58 8.0 7.9 99 995.8 16.8 SW 20.6 0.0 14.4
01:42 12.5 12.4 99 999.6 15.9 S 30.4 1.5 1.7
12:49 10.2 8.5 89 999.9 15.9 SW 31.1 0.0 9.6
14:30 9.9 8.8 93 999.8 15.9 W 24.4 0.0 9.6
14:32 9.9 8.8 93 1000.0 15.9 SW 24.4 0.0 9.6
14:45 9.7 8.6 93 999.7 15.9 SW 25.9 0.0 9.6
14:51 9.6 8.5 93 1000.0 15.9 SW 21.3 0.0 9.6
15:26 9.1 8.0 93 1000.0 15.9 S 18.3 0.0 9.6
15:29 9.1 8.0 93 999.9 15.9 SW 18.3 0.0 9.6
15:33 9.0 8.1 94 999.8 15.9 SW 16.8 0.0 9.6
15:42 8.9 8.0 94 999.6 15.9 W 17.4 0.0 9.6
15:44 8.9 8.0 94 999.7 15.9 SW 17.4 0.0 9.6
15:48 8.9 8.0 94 999.6 15.9 SW 20.6 0.0 9.6
15:49 8.9 8.0 94 999.5 15.9 S 20.6 0.0 9.6
18:11 8.7 8.6 99 996.2 15.9 S 15.9 6.0 11.8
19:38 8.9 8.8 99 995.6 15.9 S 19.7 1.5 14.0
19:57 8.9 8.8 99 995.4 15.9 WSW 22.1 0.0 14.0
20:16 7.7 7.6 99 995.7 15.9 WSW 28.2 0.8 14.4
20:54 7.5 7.4 99 996.1 15.9 WSW 20.6 0.0 14.4
21:08 7.7 7.6 99 995.5 15.9 S 20.6 0.0 14.4
21:12 7.7 7.6 99 995.5 15.9 WSW 19.0 0.0 14.4
21:18 7.7 7.6 99 995.7 15.9 WSW 19.0 0.0 14.4
21:21 7.8 7.7 99 995.7 15.9 WSW 19.0 0.0 14.4
21:34 7.9 7.8 99 996.0 15.9 N 19.7 0.0 14.4
21:43 8.1 8.0 99 996.1 15.9 S 19.0 0.0 14.4
21:52 8.2 8.1 99 995.7 15.9 SW 21.3 0.0 14.4
21:57 8.2 8.1 99 995.8 15.9 S 21.3 0.0 14.4
22:20 8.1 8.0 99 996.0 15.9 S 21.3 0.0 14.4
22:22 8.1 8.0 99 996.2 15.9 W 21.3 0.0 14.4
22:27 7.9 7.8 99 996.1 15.9 S 21.3 0.0 14.4
22:28 7.9 7.8 99 996.2 15.9 SW 20.6 0.0 14.4
22:30 7.9 7.8 99 996.1 15.9 W 20.6 0.0 14.4
22:40 7.9 7.8 99 996.2 15.9 SW 26.6 0.0 14.4
22:44 7.9 7.8 99 996.2 15.9 S 20.6 0.0 14.4
22:55 8.0 7.9 99 996.2 15.9 SW 20.6 0.0 14.4
23:12 8.0 7.9 99 996.2 15.9 SW 18.3 0.0 14.4
23:22 8.0 7.9 99 996.1 15.9 SW 18.3 0.0 14.4
23:31 8.0 7.9 99 996.2 15.9 SW 21.3 0.0 14.4
23:32 7.9 7.8 99 996.1 15.9 S 21.3 0.0 14.4
03:13 12.5 12.4 99 998.5 15.2 W 28.9 0.8 3.5
08:09 11.7 11.6 99 997.4 15.2 WNW 30.4 0.0 9.6
13:13 9.8 8.4 91 999.8 15.2 SW 28.9 0.0 9.6
13:31 10.1 9.0 93 999.7 15.2 SW 24.4 0.0 9.6
14:03 9.4 8.3 93 999.5 15.2 SW 25.9 0.0 9.6
14:28 9.9 8.8 93 999.7 15.2 SW 24.4 0.0 9.6
14:29 9.9 8.8 93 999.8 15.2 SW 24.4 0.0 9.6
14:35 9.9 8.8 93 1000.0 15.2 SW 24.4 0.0 9.6
15:10 9.2 8.1 93 999.8 15.2 NW 23.5 0.0 9.6
15:17 9.1 8.0 93 999.8 15.2 S 19.7 0.0 9.6
15:18 9.1 8.0 93 999.7 15.2 SW 19.0 0.0 9.6
15:30 9.0 8.1 94 999.8 15.2 S 18.3 0.0 9.6
15:31 9.0 8.1 94 999.8 15.2 SW 18.3 0.0 9.6
15:55 8.8 7.9 94 999.3 15.2 W 16.8 0.0 9.6
19:28 8.7 8.6 99 995.8 15.2 W 22.8 0.0 13.9
20:26 7.4 7.3 99 995.9 15.2 W 19.0 0.0 14.4
20:38 7.4 7.3 99 995.8 15.2 WSW 16.8 0.0 14.4
20:41 7.4 7.3 99 995.9 15.2 WSW 15.9 0.0 14.4
20:58 7.6 7.5 99 995.7 15.2 W 22.8 0.0 14.4
21:50 8.1 8.0 99 995.7 15.2 SW 18.3 0.0 14.4
21:54 8.2 8.1 99 996.0 15.2 N 21.3 0.0 14.4
21:56 8.2 8.1 99 995.8 15.2 S 21.3 0.0 14.4
22:25 7.9 7.8 99 996.2 15.2 SW 21.3 0.0 14.4
22:52 8.0 7.9 99 996.2 15.2 SW 20.6 0.0 14.4
23:25 8.0 7.9 99 996.3 15.2 S 21.3 0.0 14.4
23:48 7.9 7.8 99 995.9 15.2 S 19.7 0.0 14.4
23:52 7.9 7.8 99 995.8 15.2 S 19.7 0.0 14.4
00:58 10.3 10.2 99 1000.0 14.5 WSW 21.3 0.0 1.1
01:07 11.2 11.1 99 1000.0 14.5 WSW 22.1 0.8 1.2
13:49 9.7 8.3 91 999.9 14.5 SW 24.4 0.0 9.6
15:15 9.2 8.1 93 999.7 14.5 SW 19.7 0.0 9.6
15:20 9.1 8.0 93 999.8 14.5 SW 18.3 0.0 9.6
15:27 9.1 8.0 93 999.9 14.5 S 18.3 0.0 9.6
15:32 9.0 8.1 94 999.7 14.5 W 18.3 0.0 9.6
16:42 8.5 8.1 97 998.9 14.5 SW 14.5 0.0 9.6
17:13 8.8 8.7 99 998.3 14.5 S 14.5 0.0 9.6
19:10 8.2 8.1 99 995.7 14.5 S 19.0 0.0 13.9
19:36 8.8 8.7 99 995.6 14.5 WSW 20.6 1.5 14.0
20:18 7.7 7.6 99 995.7 14.5 S 22.8 0.0 14.4
20:30 7.4 7.3 99 995.7 14.5 WSW 19.0 0.0 14.4
20:51 7.4 7.3 99 995.9 14.5 WSW 16.8 0.0 14.4
20:59 7.6 7.5 99 995.8 14.5 WSW 22.8 0.0 14.4
21:00 7.6 7.5 99 995.8 14.5 WSW 22.8 0.0 14.4
21:02 7.6 7.5 99 995.6 14.5 WSW 22.8 0.0 14.4
21:04 7.6 7.5 99 995.7 14.5 WSW 22.8 0.0 14.4
21:05 7.6 7.5 99 995.7 14.5 WSW 20.6 0.0 14.4
21:07 7.6 7.5 99 995.7 14.5 WSW 20.6 0.0 14.4
21:15 7.7 7.6 99 995.6 14.5 WSW 19.0 0.0 14.4
21:24 7.8 7.7 99 995.8 14.5 N 19.0 0.0 14.4
21:37 8.0 7.9 99 995.7 14.5 N 19.7 0.0 14.4
21:49 8.1 8.0 99 995.7 14.5 S 18.3 0.0 14.4
22:31 7.9 7.8 99 996.1 14.5 NW 26.6 0.0 14.4
22:34 7.9 7.8 99 996.2 14.5 SW 26.6 0.0 14.4
23:07 8.0 7.9 99 996.1 14.5 SW 25.1 0.0 14.4
23:15 8.0 7.9 99 996.0 14.5 SW 18.3 0.0 14.4
23:17 8.0 7.9 99 996.2 14.5 SW 18.3 0.0 14.4
23:18 8.0 7.9 99 996.2 14.5 SW 18.3 0.0 14.4
23:29 8.0 7.9 99 996.0 14.5 SW 21.3 0.0 14.4
23:30 8.0 7.9 99 996.1 14.5 SW 21.3 0.0 14.4
23:44 7.9 7.8 99 996.0 14.5 W 14.5 0.0 14.4
23:59 8.0 7.9 99 995.9 14.5 W 20.6 0.0 14.4
00:52 9.9 9.8 99 1000.0 13.6 N 14.5 0.8 1.1
00:56 10.0 9.9 99 999.8 13.6 S 14.5 0.8 1.1
01:06 11.1 11.0 99 1000.0 13.6 WSW 22.1 0.8 1.2
14:31 10.0 8.9 93 1000.0 13.6 SW 24.4 0.0 9.6
14:54 9.5 8.4 93 1000.0 13.6 W 21.3 0.0 9.6
15:05 9.3 8.1 92 999.9 13.6 S 23.5 0.0 9.6
15:12 9.2 8.1 93 999.8 13.6 SW 23.5 0.0 9.6
15:21 9.2 8.1 93 999.9 13.6 SW 18.3 0.0 9.6
15:28 9.1 8.0 93 999.9 13.6 SW 18.3 0.0 9.6
15:36 9.0 8.1 94 999.4 13.6 SW 15.9 0.0 9.6
15:41 8.9 8.0 94 999.5 13.6 SW 17.4 0.0 9.6
18:14 8.7 8.6 99 996.0 13.6 WSW 15.9 3.0 12.0
19:12 8.3 8.2 99 995.8 13.6 WSW 19.0 0.0 13.9
20:11 8.0 7.9 99 995.5 13.6 N 28.2 3.8 14.4
20:28 7.4 7.3 99 995.9 13.6 WSW 19.0 0.0 14.4
20:32 7.4 7.3 99 995.7 13.6 WSW 19.0 0.0 14.4
20:33 7.4 7.3 99 995.6 13.6 S 19.0 0.0 14.4
20:35 7.4 7.3 99 995.8 13.6 WSW 16.8 0.0 14.4
20:36 7.4 7.3 99 995.8 13.6 WSW 16.8 0.0 14.4
21:26 7.9 7.8 99 995.9 13.6 WSW 19.0 0.0 14.4
21:47 8.1 8.0 99 995.8 13.6 N 18.3 0.0 14.4
22:36 7.9 7.8 99 996.2 13.6 SW 26.6 0.0 14.4
23:35 7.9 7.8 99 996.2 13.6 SW 16.8 0.0 14.4
23:40 7.9 7.8 99 995.9 13.6 S 15.9 0.0 14.4
23:42 7.9 7.8 99 995.8 13.6 SW 15.9 0.0 14.4
23:54 7.9 7.8 99 995.8 13.6 W 19.7 0.0 14.4
00:50 9.7 9.6 99 1000.0 13.0 WSW 13.0 0.8 1.1
00:53 9.9 9.8 99 1000.1 13.0 NW 14.5 1.5 1.1
00:54 10.0 9.9 99 1000.0 13.0 WSW 14.5 1.5 1.1
13:47 9.8 8.4 91 999.8 13.0 SW 25.9 0.0 9.6
14:05 9.4 8.3 93 999.8 13.0 N 25.9 0.0 9.6
15:16 9.1 8.0 93 999.7 13.0 SW 19.7 0.0 9.6
15:22 9.2 8.1 93 999.7 13.0 S 18.3 0.0 9.6
15:24 9.1 8.0 93 999.7 13.0 SW 18.3 0.0 9.6
15:37 9.0 8.1 94 999.6 13.0 S 15.9 0.0 9.6
15:46 8.9 8.0 94 999.7 13.0 SW 20.6 0.0 9.6
15:53 8.8 7.9 94 999.3 13.0 SW 20.6 0.0 9.6
16:02 8.7 7.9 95 999.7 13.0 SW 16.8 0.0 9.6
18:12 8.7 8.6 99 996.2 13.0 S 15.9 6.0 11.9
20:25 7.4 7.3 99 995.7 13.0 WSW 19.0 0.0 14.4
20:34 7.3 7.2 99 995.7 13.0 WSW 19.0 0.0 14.4
20:44 7.4 7.3 99 995.9 13.0 W 15.9 0.0 14.4
20:46 7.4 7.3 99 995.7 13.0 W 15.2 0.0 14.4
20:48 7.4 7.3 99 995.9 13.0 S 15.2 0.0 14.4
21:09 7.7 7.6 99 995.7 13.0 WSW 19.0 0.0 14.4
22:33 7.9 7.8 99 996.3 13.0 S 26.6 0.0 14.4
22:46 7.9 7.8 99 996.4 13.0 SW 20.6 0.0 14.4
23:26 8.0 7.9 99 996.1 13.0 S 21.3 0.0 14.4
23:37 7.9 7.8 99 995.9 13.0 SW 16.8 0.0 14.4
00:33 9.0 8.9 99 1000.5 12.1 SE 12.1 0.8 0.8
00:46 9.5 9.4 99 1000.2 12.1 NW 13.0 1.5 1.0
14:08 9.4 8.3 93 999.7 12.1 SW 21.3 0.0 9.6
15:34 9.0 8.1 94 999.8 12.1 NNW 16.8 0.0 9.6
15:39 8.9 8.0 94 999.5 12.1 NW 15.9 0.0 9.6
15:58 8.8 7.9 94 999.7 12.1 SW 16.8 0.0 9.6
16:04 8.7 7.9 95 999.7 12.1 SW 16.8 0.0 9.6
16:33 8.4 7.8 96 999.3 12.1 S 12.1 0.0 9.6
16:43 8.5 8.1 97 998.8 12.1 S 14.5 0.0 9.6
17:05 8.8 8.7 99 998.5 12.1 W 16.8 0.0 9.6
17:06 8.8 8.7 99 998.6 12.1 W 16.8 0.0 9.6
17:19 8.8 8.7 99 998.0 12.1 SE 14.5 0.8 9.6
17:21 8.7 8.6 99 997.9 12.1 S 14.5 1.5 9.7
17:37 8.6 8.5 99 997.3 12.1 S 12.1 2.3 10.1
18:08 8.6 8.5 99 996.2 12.1 S 12.1 0.0 11.7
18:10 8.6 8.5 99 996.2 12.1 SE 12.1 6.0 11.8
18:13 8.7 8.6 99 996.0 12.1 E 15.9 6.8 12.0
18:16 8.7 8.6 99 995.9 12.1 S 15.9 3.0 12.2
19:11 8.3 8.2 99 995.8 12.1 WSW 19.0 0.0 13.9
19:33 8.8 8.7 99 995.5 12.1 WSW 20.6 0.0 13.9
20:23 7.5 7.4 99 995.6 12.1 WSW 18.3 0.0 14.4
20:29 7.4 7.3 99 995.7 12.1 WSW 19.0 0.0 14.4
20:39 7.4 7.3 99 995.8 12.1 WSW 15.9 0.0 14.4
20:42 7.4 7.3 99 995.9 12.1 W 15.9 0.0 14.4
21:10 7.7 7.6 99 995.5 12.1 S 19.0 0.0 14.4
21:13 7.7 7.6 99 995.5 12.1 WSW 19.0 0.0 14.4
21:48 8.1 8.0 99 995.8 12.1 W 18.3 0.0 14.4
22:35 7.9 7.8 99 996.0 12.1 SW 26.6 0.0 14.4
22:54 8.0 7.9 99 996.4 12.1 SW 20.6 0.0 14.4
22:57 8.0 7.9 99 996.3 12.1 SW 20.6 0.0 14.4
23:20 8.0 7.9 99 996.2 12.1 SW 18.3 0.0 14.4
23:33 7.9 7.8 99 996.0 12.1 W 19.0 0.0 14.4
23:39 7.9 7.8 99 995.8 12.1 S 15.9 0.0 14.4
23:51 7.9 7.8 99 995.8 12.1 SW 19.7 0.0 14.4
00:37 9.2 9.1 99 1000.4 11.4 S 12.1 0.8 0.8
00:38 9.3 9.2 99 1000.5 11.4 S 13.0 0.8 0.9
00:44 9.5 9.4 99 1000.2 11.4 WSW 13.0 1.5 1.0
00:51 9.8 9.7 99 1000.1 11.4 WSW 13.0 0.8 1.1
15:35 9.0 8.1 94 999.5 11.4 SW 15.9 0.0 9.6
16:39 8.4 8.0 97 999.1 11.4 SW 12.1 0.0 9.6
16:59 8.7 8.4 98 998.7 11.4 W 16.8 0.0 9.6
17:00 8.7 8.4 98 998.9 11.4 W 16.8 0.0 9.6
17:01 8.7 8.4 98 998.7 11.4 W 16.8 0.0 9.6
17:11 8.8 8.7 99 998.3 11.4 N 15.2 0.0 9.6
17:17 8.8 8.7 99 998.1 11.4 S 14.5 0.8 9.6
17:20 8.8 8.7 99 997.9 11.4 S 14.5 0.8 9.7
17:58 8.6 8.5 99 996.7 11.4 S 11.4 3.8 11.3
19:32 8.8 8.7 99 995.7 11.4 WSW 20.6 0.0 13.9
20:27 7.4 7.3 99 995.8 11.4 WSW 19.0 0.0 14.4
20:37 7.4 7.3 99 995.8 11.4 WSW 16.8 0.0 14.4
20:43 7.4 7.3 99 995.9 11.4 SW 15.9 0.0 14.4
20:45 7.4 7.3 99 996.0 11.4 WSW 15.9 0.0 14.4
23:46 7.9 7.8 99 996.0 11.4 S 14.5 0.0 14.4
23:47 7.9 7.8 99 995.8 11.4 S 19.7 0.0 14.4
23:53 7.9 7.8 99 995.7 11.4 S 19.7 0.0 14.4
23:55 8.0 7.9 99 995.8 11.4 S 19.7 0.0 14.4
14:55 9.5 8.4 93 1000.1 10.7 N 21.3 0.0 9.6
15:57 8.8 7.9 94 999.5 10.7 SW 16.8 0.0 9.6
15:59 8.8 8.0 95 999.7 10.7 S 16.8 0.0 9.6
16:00 8.8 8.0 95 999.6 10.7 S 16.8 0.0 9.6
16:03 8.7 7.9 95 999.8 10.7 SW 16.8 0.0 9.6
16:40 8.4 8.0 97 999.1 10.7 SW 12.1 0.0 9.6
16:46 8.5 8.1 97 998.9 10.7 NW 14.5 0.0 9.6
16:48 8.6 8.2 97 999.1 10.7 S 14.5 0.0 9.6
17:36 8.6 8.5 99 997.3 10.7 S 10.7 2.3 10.1
17:59 8.6 8.5 99 996.8 10.7 S 11.4 2.3 11.3
18:01 8.6 8.5 99 996.6 10.7 S 11.4 1.5 11.3
18:03 8.6 8.5 99 996.5 10.7 S 11.4 0.8 11.3
18:04 8.6 8.5 99 996.3 10.7 S 11.4 0.8 11.3
18:06 8.6 8.5 99 996.3 10.7 S 11.4 0.0 11.3
18:07 8.6 8.5 99 996.3 10.7 S 11.4 0.0 11.3
21:16 7.7 7.6 99 995.7 10.7 WSW 19.0 0.0 14.4
23:36 7.9 7.8 99 995.8 10.7 SW 16.8 0.0 14.4
00:31 8.9 8.8 99 1000.4 9.8 W 9.8 0.8 0.8
00:34 9.1 9.0 99 1000.5 9.8 SE 12.1 1.5 0.8
00:36 9.2 9.1 99 1000.3 9.8 S 12.1 0.8 0.8
00:41 9.3 9.2 99 1000.3 9.8 WSW 13.0 0.8 0.9
00:42 9.4 9.3 99 1000.2 9.8 S 13.0 1.5 0.9
00:47 9.6 9.5 99 1000.2 9.8 S 13.0 0.8 1.0
16:05 8.7 7.9 95 999.5 9.8 SW 15.2 0.0 9.6
16:09 8.6 7.8 95 999.5 9.8 SW 13.0 0.0 9.6
16:36 8.4 8.0 97 999.2 9.8 SW 12.1 0.0 9.6
16:53 8.6 8.3 98 999.1 9.8 S 12.1 0.0 9.6
16:54 8.6 8.3 98 999.0 9.8 S 10.7 0.0 9.6
16:58 8.7 8.4 98 998.8 9.8 S 16.8 0.0 9.6
17:03 8.8 8.7 99 998.6 9.8 S 16.8 0.0 9.6
17:04 8.8 8.7 99 998.6 9.8 SE 16.8 0.0 9.6
17:09 8.9 8.8 99 998.6 9.8 SW 15.2 0.0 9.6
17:24 8.7 8.6 99 997.9 9.8 S 14.5 0.8 9.7
17:28 8.7 8.6 99 997.7 9.8 S 14.5 0.0 9.7
17:40 8.5 8.4 99 997.4 9.8 S 12.1 3.0 10.3
18:22 8.8 8.7 99 995.7 9.8 S 13.6 3.8 12.5
23:45 7.9 7.8 99 996.0 9.8 SW 14.5 0.0 14.4
00:21 8.5 8.4 99 1000.7 9.2 S 9.2 0.8 0.6
00:28 8.7 8.6 99 1000.5 9.2 S 9.2 0.8 0.7
00:29 8.7 8.6 99 1000.5 9.2 S 9.2 0.0 0.7
00:48 9.7 9.6 99 1000.1 9.2 W 13.0 0.8 1.0
00:49 9.7 9.6 99 1000.1 9.2 W 12.1 0.0 1.0
00:55 10.0 9.9 99 1000.3 9.2 WSW 14.5 0.8 1.1
15:38 8.9 8.0 94 999.5 9.2 SW 15.9 0.0 9.6
15:52 8.9 8.0 94 999.5 9.2 S 20.6 0.0 9.6
16:10 8.6 7.8 95 999.5 9.2 SW 13.0 0.0 9.6
16:38 8.4 8.0 97 999.2 9.2 S 12.1 0.0 9.6
16:55 8.7 8.4 98 998.8 9.2 W 10.7 0.0 9.6
17:08 8.8 8.7 99 998.6 9.2 S 15.2 0.0 9.6
17:14 8.8 8.7 99 998.2 9.2 S 14.5 0.0 9.6
17:25 8.7 8.6 99 997.8 9.2 S 14.5 0.8 9.7
17:38 8.5 8.4 99 997.3 9.2 S 12.1 3.0 10.2
17:55 8.6 8.5 99 996.8 9.2 S 10.7 4.5 11.2
18:24 8.8 8.7 99 995.7 9.2 S 13.6 3.0 12.6
00:30 8.8 8.7 99 1000.5 8.3 S 9.2 0.8 0.8
00:35 9.2 9.1 99 1000.3 8.3 S 12.1 0.8 0.8
00:39 9.3 9.2 99 1000.4 8.3 S 13.0 0.8 0.9
15:51 8.9 8.0 94 999.6 8.3 SW 20.6 0.0 9.6
16:07 8.7 7.9 95 999.5 8.3 W 13.0 0.0 9.6
16:31 8.4 7.8 96 999.2 8.3 SW 8.3 0.0 9.6
16:34 8.4 7.8 96 999.3 8.3 S 12.1 0.0 9.6
16:35 8.4 8.0 97 999.3 8.3 SW 12.1 0.0 9.6
16:41 8.5 8.1 97 999.0 8.3 S 12.1 0.0 9.6
16:44 8.5 8.1 97 998.9 8.3 W 14.5 0.0 9.6
16:47 8.5 8.1 97 998.8 8.3 S 14.5 0.0 9.6
16:50 8.6 8.3 98 999.2 8.3 S 14.5 0.0 9.6
16:51 8.6 8.3 98 999.2 8.3 S 14.5 0.0 9.6
16:56 8.7 8.4 98 998.9 8.3 SW 11.4 0.0 9.6
17:07 8.8 8.7 99 998.5 8.3 S 15.2 0.0 9.6
17:15 8.8 8.7 99 998.2 8.3 S 14.5 0.0 9.6
17:22 8.7 8.6 99 997.8 8.3 S 14.5 0.8 9.7
17:26 8.7 8.6 99 997.8 8.3 S 14.5 0.0 9.7
17:31 8.6 8.5 99 997.7 8.3 SE 12.1 1.5 9.8
17:34 8.6 8.5 99 997.5 8.3 S 12.1 3.0 10.0
17:41 8.6 8.5 99 997.4 8.3 S 12.1 3.0 10.3
17:47 8.5 8.4 99 997.1 8.3 S 12.1 3.0 10.6
17:51 8.5 8.4 99 997.1 8.3 S 9.2 3.8 10.8
17:52 8.5 8.4 99 997.0 8.3 S 10.7 3.8 11.0
18:17 8.7 8.6 99 995.8 8.3 S 15.9 3.8 12.2
18:28 8.9 8.8 99 995.8 8.3 WSW 10.7 1.5 12.7
23:43 7.9 7.8 99 996.1 8.3 SW 14.5 0.0 14.4
00:22 8.6 8.5 99 1000.5 7.6 S 9.2 0.8 0.6
00:25 8.6 8.5 99 1000.5 7.6 S 9.2 0.8 0.7
00:32 9.0 8.9 99 1000.4 7.6 W 9.8 0.8 0.8
00:40 9.3 9.2 99 1000.3 7.6 S 13.0 0.8 0.9
16:13 8.6 7.8 95 999.2 7.6 W 12.1 0.0 9.6
16:28 8.4 7.8 96 999.2 7.6 S 8.3 0.0 9.6
16:30 8.4 7.8 96 999.2 7.6 SW 8.3 0.0 9.6
16:49 8.6 8.2 97 999.2 7.6 SE 14.5 0.0 9.6
17:27 8.7 8.6 99 997.7 7.6 S 14.5 0.0 9.7
17:33 8.6 8.5 99 997.5 7.6 S 12.1 2.3 10.0
17:43 8.5 8.4 99 997.3 7.6 S 12.1 3.0 10.4
17:44 8.5 8.4 99 997.3 7.6 S 12.1 3.0 10.5
17:49 8.5 8.4 99 997.1 7.6 S 9.8 2.3 10.7
18:19 8.8 8.7 99 995.9 7.6 S 15.9 4.5 12.3
18:20 8.8 8.7 99 995.7 7.6 S 15.9 3.8 12.4
23:38 7.9 7.8 99 995.9 7.6 SW 15.9 0.0 14.4
00:14 8.3 8.2 99 1000.9 6.9 S 6.9 2.3 0.6
00:24 8.6 8.5 99 1000.6 6.9 SE 9.2 0.8 0.7
00:26 8.6 8.5 99 1000.5 6.9 S 9.2 0.8 0.7
00:27 8.7 8.6 99 1000.7 6.9 S 9.2 0.8 0.7
00:43 9.4 9.3 99 1000.2 6.9 S 13.0 1.5 1.0
16:08 8.7 7.9 95 999.5 6.9 S 13.0 0.0 9.6
16:22 8.5 7.9 96 999.0 6.9 SW 9.2 0.0 9.6
16:23 8.5 7.9 96 999.0 6.9 SW 7.6 0.0 9.6
16:24 8.5 7.9 96 998.9 6.9 SW 7.6 0.0 9.6
16:29 8.4 7.8 96 999.3 6.9 SE 8.3 0.0 9.6
16:37 8.4 8.0 97 999.1 6.9 S 12.1 0.0 9.6
17:29 8.6 8.5 99 997.8 6.9 S 14.5 0.0 9.8
17:32 8.6 8.5 99 997.6 6.9 S 12.1 2.3 9.9
17:45 8.5 8.4 99 997.4 6.9 S 12.1 3.0 10.5
17:53 8.5 8.4 99 997.0 6.9 S 10.7 4.5 11.0
18:26 8.9 8.8 99 995.7 6.9 WSW 10.7 3.0 12.7
00:10 8.3 8.2 99 1000.9 6.0 SE 6.0 4.5 0.4
00:15 8.4 8.3 99 1000.9 6.0 WSW 6.9 2.3 0.6
00:18 8.5 8.4 99 1000.7 6.0 S 6.9 0.8 0.6
16:12 8.6 7.8 95 999.5 6.0 SW 13.0 0.0 9.6
16:14 8.6 7.8 95 999.2 6.0 SW 12.1 0.0 9.6
16:25 8.4 7.8 96 998.9 6.0 SW 6.9 0.0 9.6
16:26 8.4 7.8 96 999.1 6.0 S 8.3 0.0 9.6
17:48 8.5 8.4 99 997.1 6.0 SE 9.8 2.3 10.6
17:56 8.5 8.4 99 996.6 6.0 SE 10.7 4.5 11.2
00:00 8.2 8.1 99 1001.1 5.4 SE 7.6 1.5 0.0
00:02 8.2 8.1 99 1001.0 5.4 SE 6.9 1.5 0.0
00:03 8.2 8.1 99 1001.1 5.4 SE 6.9 0.8 0.0
00:04 8.2 8.1 99 1001.0 5.4 SE 6.9 0.0 0.0
00:09 8.3 8.2 99 1001.0 5.4 S 5.4 3.8 0.3
00:19 8.5 8.4 99 1000.7 5.4 S 6.9 1.5 0.6
16:16 8.5 7.7 95 999.0 5.4 S 9.8 0.0 9.6
16:20 8.5 7.9 96 999.0 5.4 S 9.2 0.0 9.6
16:27 8.4 7.8 96 999.2 5.4 S 8.3 0.0 9.6
00:06 8.3 8.2 99 1001.0 4.5 SE 6.9 3.0 0.3
00:07 8.3 8.2 99 1000.9 4.5 SE 5.4 3.0 0.3
00:23 8.6 8.5 99 1000.6 4.5 S 9.2 0.8 0.6
16:17 8.6 7.8 95 999.0 4.5 S 9.8 0.0 9.6
16:19 8.5 7.7 95 998.9 4.5 S 9.8 0.0 9.6
00:12 8.3 8.2 99 1000.9 3.8 SE 6.0 2.3 0.4
00:13 8.4 8.3 99 1000.8 3.8 WSW 6.0 2.3 0.5
00:16 8.4 8.3 99 1000.8 3.8 SE 6.9 1.5 0.6
00:17 8.4 8.3 99 1000.7 3.8 S 6.9 1.5 0.6

UK - WEATHER STATION TOPSITES - UK World Weather Websites

This is a private weather station, never base important decisions or events on data from this weather station. Although every effort has been made to make the data as accurate as possible it does not meet MetOffice standards. It is proved as a guide of local weather conditions. We accept no liability for any loss which may arise from use of the data.

Copyright © Carnkie Weather 2009 - 2017.